Time,TemperatureF,DewpointF,PressureIn,WindDirection,WindDirectionDegrees,WindSpeedMPH,WindSpeedGustMPH,Humidity,HourlyPrecipIn,Conditions,Clouds,dailyrainin,SoftwareType,DateUTC
2013-01-01 00:00:00,32.9,24.6,30.10,SW,225,5.6,5.6,71,0.00,,,0.00,WUHU216HW,2013-01-01 07:00:00,
2013-01-01 00:05:00,32.9,24.6,30.10,SW,225,5.6,5.6,71,0.00,,,0.00,WUHU216HW,2013-01-01 07:05:00,
2013-01-01 01:00:00,31.0,22.7,30.10,SSW,203,3.6,3.6,71,0.00,,,0.00,WUHU216HW,2013-01-01 08:00:00,
2013-01-01 01:05:00,31.0,22.7,30.10,SSW,203,3.6,3.6,71,0.00,,,0.00,WUHU216HW,2013-01-01 08:05:00,
2013-01-01 02:00:00,30.4,22.8,30.11,SSW,203,8.5,8.5,73,0.00,,,0.00,WUHU216HW,2013-01-01 09:00:00,
2013-01-01 02:05:00,30.4,22.8,30.11,SSW,203,8.5,8.5,73,0.00,,,0.00,WUHU216HW,2013-01-01 09:05:00,
2013-01-01 03:00:00,29.9,23.5,30.11,WSW,248,4.5,4.5,77,0.00,,,0.00,WUHU216HW,2013-01-01 10:00:00,
2013-01-01 03:05:00,29.7,23.3,30.11,SW,225,4.0,7.2,77,0.00,,,0.00,WUHU216HW,2013-01-01 10:05:00,
2013-01-01 03:10:00,29.5,22.9,30.12,SSW,203,4.5,7.2,76,0.00,,,0.00,WUHU216HW,2013-01-01 10:10:00,
2013-01-01 03:15:00,29.5,22.9,30.11,SW,225,4.9,6.3,76,0.00,,,0.00,WUHU216HW,2013-01-01 10:15:00,
2013-01-01 03:20:00,29.3,22.7,30.11,West,270,2.0,5.4,76,0.00,,,0.00,WUHU216HW,2013-01-01 10:20:00,
2013-01-01 03:25:00,29.2,22.5,30.12,West,270,1.8,4.9,76,0.00,,,0.00,WUHU216HW,2013-01-01 10:25:00,
2013-01-01 03:30:00,29.2,22.2,30.11,SW,225,1.8,4.0,75,0.00,,,0.00,WUHU216HW,2013-01-01 10:30:00,
2013-01-01 03:35:00,29.0,22.1,30.11,West,270,1.1,4.0,75,0.00,,,0.00,WUHU216HW,2013-01-01 10:35:00,
2013-01-01 03:40:00,28.8,22.1,30.12,West,270,1.1,3.4,76,0.00,,,0.00,WUHU216HW,2013-01-01 10:40:00,
2013-01-01 03:45:00,28.4,22.2,30.12,WNW,293,0.7,4.9,77,0.00,,,0.00,WUHU216HW,2013-01-01 10:45:00,
2013-01-01 03:50:00,28.3,22.2,30.11,WSW,248,3.8,4.9,78,0.00,,,0.00,WUHU216HW,2013-01-01 10:50:00,
2013-01-01 03:55:00,28.1,21.8,30.11,SSW,203,3.4,4.7,77,0.00,,,0.00,WUHU216HW,2013-01-01 10:55:00,
2013-01-01 04:00:00,27.9,21.6,30.11,WSW,248,2.5,3.8,77,0.00,,,0.00,WUHU216HW,2013-01-01 11:00:00,
2013-01-01 04:05:00,27.9,21.9,30.12,WSW,248,2.7,5.1,78,0.00,,,0.00,WUHU216HW,2013-01-01 11:05:00,
2013-01-01 04:10:00,27.9,21.9,30.12,WSW,248,5.1,6.9,78,0.00,,,0.00,WUHU216HW,2013-01-01 11:10:00,
2013-01-01 04:15:00,27.9,21.9,30.12,West,270,5.1,6.9,78,0.00,,,0.00,WUHU216HW,2013-01-01 11:15:00,
2013-01-01 04:20:00,27.9,21.9,30.12,WSW,248,2.0,5.8,78,0.00,,,0.00,WUHU216HW,2013-01-01 11:20:00,
2013-01-01 04:25:00,27.7,21.7,30.12,SW,225,5.1,6.9,78,0.00,,,0.00,WUHU216HW,2013-01-01 11:25:00,
2013-01-01 04:30:00,27.7,22.1,30.12,SW,225,7.8,7.8,79,0.00,,,0.00,WUHU216HW,2013-01-01 11:30:00,
2013-01-01 04:35:00,27.7,22.1,30.12,SSW,203,4.5,7.8,79,0.00,,,0.00,WUHU216HW,2013-01-01 11:35:00,
2013-01-01 04:40:00,27.5,21.9,30.12,SSW,203,0.4,7.8,79,0.00,,,0.00,WUHU216HW,2013-01-01 11:40:00,
2013-01-01 04:45:00,27.5,21.5,30.13,North,0,0.7,4.7,78,0.00,,,0.00,WUHU216HW,2013-01-01 11:45:00,
2013-01-01 04:50:00,27.4,21.3,30.13,NE,45,0.9,2.2,78,0.00,,,0.00,WUHU216HW,2013-01-01 11:50:00,
2013-01-01 04:55:00,27.2,21.2,30.13,North,0,0.4,1.1,78,0.00,,,0.00,WUHU216HW,2013-01-01 11:55:00,
2013-01-01 05:00:00,27.0,21.0,30.13,NNE,23,0.2,1.6,78,0.00,,,0.00,WUHU216HW,2013-01-01 12:00:00,
2013-01-01 05:05:00,27.0,21.0,30.13,WSW,248,0.4,1.6,78,0.00,,,0.00,WUHU216HW,2013-01-01 12:05:00,
2013-01-01 05:10:00,27.2,21.2,30.13,NNW,338,0.7,3.4,78,0.00,,,0.00,WUHU216HW,2013-01-01 12:10:00,
2013-01-01 05:15:00,27.4,21.3,30.13,WNW,293,0.2,3.4,78,0.00,,,0.00,WUHU216HW,2013-01-01 12:15:00,
2013-01-01 05:20:00,27.2,21.2,30.14,NNE,23,0.0,1.3,78,0.00,,,0.00,WUHU216HW,2013-01-01 12:20:00,
2013-01-01 05:25:00,27.0,20.7,30.13,ESE,113,0.4,0.7,77,0.00,,,0.00,WUHU216HW,2013-01-01 12:25:00,
2013-01-01 05:30:00,27.0,20.7,30.14,SE,135,0.0,1.1,77,0.00,,,0.00,WUHU216HW,2013-01-01 12:30:00,
2013-01-01 05:35:00,26.8,20.5,30.14,NNW,338,0.0,1.1,77,0.00,,,0.00,WUHU216HW,2013-01-01 12:35:00,
2013-01-01 05:40:00,26.6,20.4,30.14,SW,225,0.0,0.7,77,0.00,,,0.00,WUHU216HW,2013-01-01 12:40:00,
2013-01-01 05:45:00,26.5,20.2,30.14,SW,225,0.4,0.7,77,0.00,,,0.00,WUHU216HW,2013-01-01 12:45:00,
2013-01-01 05:50:00,26.3,20.0,30.14,SW,225,0.9,0.9,77,0.00,,,0.00,WUHU216HW,2013-01-01 12:50:00,
2013-01-01 05:55:00,26.1,19.8,30.15,SW,225,0.9,1.6,77,0.00,,,0.00,WUHU216HW,2013-01-01 12:55:00,
2013-01-01 06:00:00,25.7,19.5,30.15,WSW,248,0.4,1.6,77,0.00,,,0.00,WUHU216HW,2013-01-01 13:00:00,
2013-01-01 06:05:00,25.6,19.4,30.15,SSW,203,0.4,1.6,77,0.00,,,0.00,WUHU216HW,2013-01-01 13:05:00,
2013-01-01 06:10:00,25.4,19.2,30.15,SW,225,1.1,1.6,77,0.00,,,0.00,WUHU216HW,2013-01-01 13:10:00,
2013-01-01 06:15:00,25.2,19.0,30.15,SW,225,0.4,1.6,77,0.00,,,0.00,WUHU216HW,2013-01-01 13:15:00,
2013-01-01 06:20:00,25.2,19.0,30.16,SSW,203,0.7,1.3,77,0.00,,,0.00,WUHU216HW,2013-01-01 13:20:00,
2013-01-01 06:25:00,25.2,19.3,30.15,SW,225,0.4,1.8,78,0.00,,,0.00,WUHU216HW,2013-01-01 13:25:00,
2013-01-01 06:30:00,25.0,19.2,30.15,SSW,203,1.8,2.0,78,0.00,,,0.00,WUHU216HW,2013-01-01 13:30:00,
2013-01-01 06:35:00,25.0,19.2,30.15,SW,225,1.6,2.5,78,0.00,,,0.00,WUHU216HW,2013-01-01 13:35:00,
2013-01-01 06:40:00,25.0,19.2,30.15,SSW,203,1.6,2.5,78,0.00,,,0.00,WUHU216HW,2013-01-01 13:40:00,
2013-01-01 06:45:00,24.8,19.0,30.15,SSW,203,0.2,1.6,78,0.00,,,0.00,WUHU216HW,2013-01-01 13:45:00,
2013-01-01 06:50:00,24.8,19.0,30.15,SSW,203,0.4,1.6,78,0.00,,,0.00,WUHU216HW,2013-01-01 13:50:00,
2013-01-01 06:55:00,24.8,19.0,30.15,South,180,0.0,0.4,78,0.00,,,0.00,WUHU216HW,2013-01-01 13:55:00,
2013-01-01 07:00:00,24.7,19.1,30.15,NNE,23,1.6,2.2,79,0.00,,,0.00,WUHU216HW,2013-01-01 14:00:00,
2013-01-01 07:05:00,24.5,18.6,30.15,WSW,248,0.4,2.2,78,0.00,,,0.00,WUHU216HW,2013-01-01 14:05:00,
2013-01-01 07:10:00,24.3,18.5,30.15,NNE,23,0.4,0.9,78,0.00,,,0.00,WUHU216HW,2013-01-01 14:10:00,
2013-01-01 07:15:00,24.1,18.3,30.15,NNE,23,0.0,0.9,78,0.00,,,0.00,WUHU216HW,2013-01-01 14:15:00,
2013-01-01 07:16:00,24.1,18.3,30.15,NNE,23,0.0,0.0,78,0.00,,,0.00,WUHU216HW,2013-01-01 14:16:00,
2013-01-01 07:20:00,24.1,18.3,30.15,NNE,23,0.0,0.4,78,0.00,,,0.00,WUHU216HW,2013-01-01 14:20:00,
2013-01-01 07:25:00,24.1,18.3,30.15,NNE,23,0.0,0.0,78,0.00,,,0.00,WUHU216HW,2013-01-01 14:25:00,
2013-01-01 08:00:00,24.8,19.3,30.16,ESE,113,0.9,0.9,79,0.00,,,0.00,WUHU216HW,2013-01-01 15:00:00,
2013-01-01 08:05:00,24.8,19.3,30.16,ESE,113,0.9,0.9,79,0.00,,,0.00,WUHU216HW,2013-01-01 15:05:00,
2013-01-01 09:00:00,29.5,23.1,30.18,WSW,248,1.3,1.3,77,0.00,,,0.00,WUHU216HW,2013-01-01 16:00:00,
2013-01-01 09:05:00,30.1,23.7,30.18,WNW,293,3.1,4.5,77,0.00,,,0.00,WUHU216HW,2013-01-01 16:05:00,
2013-01-01 09:10:00,30.8,24.1,30.18,WSW,248,2.9,4.5,76,0.00,,,0.00,WUHU216HW,2013-01-01 16:10:00,
2013-01-01 09:15:00,31.3,24.3,30.18,SW,225,3.4,5.1,75,0.00,,,0.00,WUHU216HW,2013-01-01 16:15:00,
2013-01-01 09:20:00,31.5,24.1,30.18,WNW,293,1.1,5.1,74,0.00,,,0.00,WUHU216HW,2013-01-01 16:20:00,
2013-01-01 09:25:00,32.0,24.4,30.18,NW,315,1.1,3.4,73,0.00,,,0.00,WUHU216HW,2013-01-01 16:25:00,
2013-01-01 09:30:00,32.4,24.7,30.18,WSW,248,1.8,2.7,73,0.00,,,0.00,WUHU216HW,2013-01-01 16:30:00,
2013-01-01 09:35:00,32.8,24.7,30.19,SE,135,0.0,1.8,72,0.00,,,0.00,WUHU216HW,2013-01-01 16:35:00,
2013-01-01 09:36:00,32.8,24.7,30.19,ESE,113,0.4,1.8,72,0.00,,,0.00,WUHU216HW,2013-01-01 16:36:00,
2013-01-01 09:37:00,32.8,24.7,30.19,NNE,23,1.3,1.8,72,0.00,,,0.00,WUHU216HW,2013-01-01 16:37:00,
2013-01-01 09:38:00,32.9,24.8,30.19,NNE,23,1.1,1.8,72,0.00,,,0.00,WUHU216HW,2013-01-01 16:38:00,
2013-01-01 09:39:00,32.9,24.8,30.19,East,90,2.0,2.7,72,0.00,,,0.00,WUHU216HW,2013-01-01 16:39:00,
2013-01-01 09:40:00,33.1,24.7,30.18,East,90,1.6,2.7,71,0.00,,,0.00,WUHU216HW,2013-01-01 16:40:00,
2013-01-01 09:41:00,33.1,24.7,30.18,ESE,113,0.9,2.7,71,0.00,,,0.00,WUHU216HW,2013-01-01 16:41:00,
2013-01-01 09:42:00,33.1,24.7,30.18,ESE,113,1.1,2.7,71,0.00,,,0.00,WUHU216HW,2013-01-01 16:42:00,
2013-01-01 09:43:00,33.3,24.8,30.19,ESE,113,0.4,2.7,71,0.00,,,0.00,WUHU216HW,2013-01-01 16:43:00,
2013-01-01 10:00:00,34.7,25.6,30.18,East,90,0.9,0.9,69,0.00,,,0.00,WUHU216HW,2013-01-01 17:00:00,
2013-01-01 10:01:00,34.7,25.6,30.18,NNE,23,1.8,1.8,69,0.00,,,0.00,WUHU216HW,2013-01-01 17:01:00,
2013-01-01 10:02:00,34.9,25.7,30.19,North,0,1.1,2.2,69,0.00,,,0.00,WUHU216HW,2013-01-01 17:02:00,
2013-01-01 10:03:00,34.9,25.7,30.19,NNE,23,0.9,2.5,69,0.00,,,0.00,WUHU216HW,2013-01-01 17:03:00,
2013-01-01 10:04:00,35.1,25.6,30.18,NNW,338,2.9,2.9,68,0.00,,,0.00,WUHU216HW,2013-01-01 17:04:00,
2013-01-01 10:05:00,35.1,25.6,30.18,NE,45,2.2,2.9,68,0.00,,,0.00,WUHU216HW,2013-01-01 17:05:00,
2013-01-01 10:06:00,35.3,25.7,30.18,ENE,68,1.1,2.9,68,0.00,,,0.00,WUHU216HW,2013-01-01 17:06:00,
2013-01-01 10:07:00,35.3,25.7,30.18,SE,135,0.2,2.9,68,0.00,,,0.00,WUHU216HW,2013-01-01 17:07:00,
2013-01-01 10:08:00,35.3,25.7,30.18,North,0,2.2,2.9,68,0.00,,,0.00,WUHU216HW,2013-01-01 17:08:00,
2013-01-01 10:09:00,35.3,25.7,30.18,NE,45,0.9,2.9,68,0.00,,,0.00,WUHU216HW,2013-01-01 17:09:00,
2013-01-01 10:10:00,35.5,25.9,30.18,NE,45,2.2,2.9,68,0.00,,,0.00,WUHU216HW,2013-01-01 17:10:00,
2013-01-01 10:11:00,35.5,25.6,30.18,NE,45,0.4,2.9,67,0.00,,,0.00,WUHU216HW,2013-01-01 17:11:00,
2013-01-01 10:12:00,35.6,25.7,30.18,NNE,23,1.6,2.9,67,0.00,,,0.00,WUHU216HW,2013-01-01 17:12:00,
2013-01-01 10:13:00,35.6,25.7,30.18,ENE,68,2.0,2.9,67,0.00,,,0.00,WUHU216HW,2013-01-01 17:13:00,
2013-01-01 10:14:00,35.6,25.7,30.18,East,90,1.1,2.7,67,0.00,,,0.00,WUHU216HW,2013-01-01 17:14:00,
2013-01-01 10:15:00,35.8,25.9,30.18,ENE,68,0.2,2.7,67,0.00,,,0.00,WUHU216HW,2013-01-01 17:15:00,
2013-01-01 10:16:00,35.6,25.7,30.18,NNE,23,1.3,2.2,67,0.00,,,0.00,WUHU216HW,2013-01-01 17:16:00,
2013-01-01 10:17:00,35.8,25.9,30.18,ENE,68,0.2,2.2,67,0.00,,,0.00,WUHU216HW,2013-01-01 17:17:00,
2013-01-01 10:18:00,35.8,25.9,30.18,North,0,1.8,2.2,67,0.00,,,0.00,WUHU216HW,2013-01-01 17:18:00,
2013-01-01 10:19:00,36.0,25.8,30.18,North,0,1.6,2.2,66,0.00,,,0.00,WUHU216HW,2013-01-01 17:19:00,
2013-01-01 10:20:00,36.0,25.8,30.18,NNE,23,1.6,2.2,66,0.00,,,0.00,WUHU216HW,2013-01-01 17:20:00,
2013-01-01 10:21:00,36.0,25.8,30.18,NNE,23,0.4,2.9,66,0.00,,,0.00,WUHU216HW,2013-01-01 17:21:00,
2013-01-01 10:22:00,36.2,25.9,30.18,NNW,338,1.6,2.9,66,0.00,,,0.00,WUHU216HW,2013-01-01 17:22:00,
2013-01-01 10:23:00,36.2,25.9,30.18,NNE,23,0.2,2.9,66,0.00,,,0.00,WUHU216HW,2013-01-01 17:23:00,
2013-01-01 10:24:00,36.2,25.9,30.18,NE,45,0.7,2.9,66,0.00,,,0.00,WUHU216HW,2013-01-01 17:24:00,
2013-01-01 10:25:00,36.4,26.1,30.18,East,90,0.0,2.9,66,0.00,,,0.00,WUHU216HW,2013-01-01 17:25:00,
2013-01-01 10:26:00,36.4,26.1,30.18,North,0,0.7,2.9,66,0.00,,,0.00,WUHU216HW,2013-01-01 17:26:00,
2013-01-01 10:27:00,36.4,25.8,30.18,NE,45,1.1,2.9,65,0.00,,,0.00,WUHU216HW,2013-01-01 17:27:00,
2013-01-01 10:28:00,36.4,25.8,30.18,SSW,203,1.8,2.9,65,0.00,,,0.00,WUHU216HW,2013-01-01 17:28:00,
2013-01-01 10:29:00,36.5,25.9,30.18,SSW,203,1.8,2.9,65,0.00,,,0.00,WUHU216HW,2013-01-01 17:29:00,
2013-01-01 10:30:00,36.5,25.9,30.18,SSW,203,0.7,2.9,65,0.00,,,0.00,WUHU216HW,2013-01-01 17:30:00,
2013-01-01 10:31:00,36.7,26.0,30.18,SE,135,0.0,1.8,65,0.00,,,0.00,WUHU216HW,2013-01-01 17:31:00,
2013-01-01 10:32:00,36.7,26.0,30.18,ESE,113,0.2,1.8,65,0.00,,,0.00,WUHU216HW,2013-01-01 17:32:00,
2013-01-01 10:33:00,36.9,26.2,30.18,NNE,23,0.2,1.8,65,0.00,,,0.00,WUHU216HW,2013-01-01 17:33:00,
2013-01-01 10:34:00,37.1,26.4,30.18,NE,45,0.2,1.8,65,0.00,,,0.00,WUHU216HW,2013-01-01 17:34:00,
2013-01-01 10:35:00,37.1,26.4,30.18,ENE,68,0.9,1.8,65,0.00,,,0.00,WUHU216HW,2013-01-01 17:35:00,
2013-01-01 10:36:00,37.1,26.4,30.18,ENE,68,0.2,1.8,65,0.00,,,0.00,WUHU216HW,2013-01-01 17:36:00,
2013-01-01 10:37:00,37.3,26.2,30.18,NW,315,0.4,1.8,64,0.00,,,0.00,WUHU216HW,2013-01-01 17:37:00,
2013-01-01 10:38:00,37.4,26.7,30.18,North,0,0.2,1.8,65,0.00,,,0.00,WUHU216HW,2013-01-01 17:38:00,
2013-01-01 10:39:00,37.4,26.4,30.18,WNW,293,0.2,1.6,64,0.00,,,0.00,WUHU216HW,2013-01-01 17:39:00,
2013-01-01 10:40:00,37.4,26.4,30.18,NNE,23,0.4,1.1,64,0.00,,,0.00,WUHU216HW,2013-01-01 17:40:00,
2013-01-01 10:41:00,37.4,26.4,30.18,WNW,293,0.9,1.1,64,0.00,,,0.00,WUHU216HW,2013-01-01 17:41:00,
2013-01-01 10:42:00,37.6,26.6,30.18,North,0,1.1,1.3,64,0.00,,,0.00,WUHU216HW,2013-01-01 17:42:00,
2013-01-01 10:43:00,37.6,26.6,30.18,NW,315,1.1,2.2,64,0.00,,,0.00,WUHU216HW,2013-01-01 17:43:00,
2013-01-01 10:44:00,37.6,26.1,30.18,North,0,1.8,2.2,63,0.00,,,0.00,WUHU216HW,2013-01-01 17:44:00,
2013-01-01 10:45:00,37.6,26.1,30.18,North,0,1.1,2.2,63,0.00,,,0.00,WUHU216HW,2013-01-01 17:45:00,
2013-01-01 10:46:00,37.8,26.3,30.18,ENE,68,2.5,2.5,63,0.00,,,0.00,WUHU216HW,2013-01-01 17:46:00,
2013-01-01 10:47:00,37.8,26.3,30.18,NE,45,1.3,2.5,63,0.00,,,0.00,WUHU216HW,2013-01-01 17:47:00,
2013-01-01 10:48:00,38.0,26.5,30.18,SE,135,0.2,2.5,63,0.00,,,0.00,WUHU216HW,2013-01-01 17:48:00,
2013-01-01 10:49:00,38.0,26.5,30.18,NE,45,2.9,2.9,63,0.00,,,0.00,WUHU216HW,2013-01-01 17:49:00,
2013-01-01 10:50:00,38.0,26.5,30.18,NNW,338,2.9,4.7,63,0.00,,,0.00,WUHU216HW,2013-01-01 17:50:00,
2013-01-01 10:51:00,38.0,26.1,30.18,NNW,338,2.0,4.7,62,0.00,,,0.00,WUHU216HW,2013-01-01 17:51:00,
2013-01-01 10:52:00,38.0,26.1,30.18,North,0,1.1,4.7,62,0.00,,,0.00,WUHU216HW,2013-01-01 17:52:00,
2013-01-01 10:53:00,38.2,26.7,30.18,East,90,3.4,4.7,63,0.00,,,0.00,WUHU216HW,2013-01-01 17:53:00,
2013-01-01 10:54:00,38.2,26.7,30.18,East,90,1.8,4.7,63,0.00,,,0.00,WUHU216HW,2013-01-01 17:54:00,
2013-01-01 10:55:00,38.2,26.7,30.18,SE,135,1.8,4.7,63,0.00,,,0.00,WUHU216HW,2013-01-01 17:55:00,
2013-01-01 10:56:00,38.2,26.7,30.18,ESE,113,4.0,4.7,63,0.00,,,0.00,WUHU216HW,2013-01-01 17:56:00,
2013-01-01 10:57:00,38.2,26.7,30.17,ESE,113,2.2,4.7,63,0.00,,,0.00,WUHU216HW,2013-01-01 17:57:00,
2013-01-01 10:58:00,38.3,26.8,30.18,SE,135,2.2,4.7,63,0.00,,,0.00,WUHU216HW,2013-01-01 17:58:00,
2013-01-01 10:59:00,38.3,26.8,30.18,SSE,158,1.6,4.7,63,0.00,,,0.00,WUHU216HW,2013-01-01 17:59:00,
2013-01-01 11:00:00,38.3,26.8,30.17,ESE,113,1.3,4.0,63,0.00,,,0.00,WUHU216HW,2013-01-01 18:00:00,
2013-01-01 11:01:00,38.5,26.9,30.17,SE,135,1.8,4.0,63,0.00,,,0.00,WUHU216HW,2013-01-01 18:01:00,
2013-01-01 11:02:00,38.5,26.6,30.17,ESE,113,2.0,4.0,62,0.00,,,0.00,WUHU216HW,2013-01-01 18:02:00,
2013-01-01 11:03:00,38.5,26.6,30.17,SE,135,2.9,4.0,62,0.00,,,0.00,WUHU216HW,2013-01-01 18:03:00,
2013-01-01 11:04:00,38.7,26.7,30.17,SE,135,3.4,4.0,62,0.00,,,0.00,WUHU216HW,2013-01-01 18:04:00,
2013-01-01 11:05:00,38.9,26.9,30.17,ENE,68,1.1,4.0,62,0.00,,,0.00,WUHU216HW,2013-01-01 18:05:00,
2013-01-01 11:06:00,38.9,26.9,30.17,NNE,23,1.8,4.0,62,0.00,,,0.00,WUHU216HW,2013-01-01 18:06:00,
2013-01-01 11:07:00,38.9,26.9,30.16,ENE,68,3.1,3.8,62,0.00,,,0.00,WUHU216HW,2013-01-01 18:07:00,
2013-01-01 11:08:00,39.1,27.1,30.16,East,90,3.1,3.6,62,0.00,,,0.00,WUHU216HW,2013-01-01 18:08:00,
2013-01-01 11:09:00,39.2,26.8,30.16,East,90,1.6,3.6,61,0.00,,,0.00,WUHU216HW,2013-01-01 18:09:00,
2013-01-01 11:10:00,39.2,26.5,30.16,NNW,338,2.5,3.6,60,0.00,,,0.00,WUHU216HW,2013-01-01 18:10:00,
2013-01-01 11:11:00,39.2,25.6,30.16,North,0,4.5,4.5,58,0.00,,,0.00,WUHU216HW,2013-01-01 18:11:00,
2013-01-01 11:12:00,39.2,25.6,30.16,NNE,23,2.0,4.5,58,0.00,,,0.00,WUHU216HW,2013-01-01 18:12:00,
2013-01-01 11:13:00,39.2,25.2,30.16,North,0,0.4,4.5,57,0.00,,,0.00,WUHU216HW,2013-01-01 18:13:00,
2013-01-01 11:14:00,39.4,25.4,30.17,NNW,338,0.7,4.5,57,0.00,,,0.00,WUHU216HW,2013-01-01 18:14:00,
2013-01-01 11:15:00,39.4,25.7,30.17,WNW,293,0.9,4.5,58,0.00,,,0.00,WUHU216HW,2013-01-01 18:15:00,
2013-01-01 11:16:00,39.6,25.9,30.17,NW,315,1.1,4.5,58,0.00,,,0.00,WUHU216HW,2013-01-01 18:16:00,
2013-01-01 11:17:00,39.6,25.9,30.17,West,270,0.7,4.5,58,0.00,,,0.00,WUHU216HW,2013-01-01 18:17:00,
2013-01-01 11:18:00,39.6,25.9,30.16,NW,315,1.8,4.5,58,0.00,,,0.00,WUHU216HW,2013-01-01 18:18:00,
2013-01-01 11:19:00,39.6,25.9,30.16,WNW,293,1.8,4.5,58,0.00,,,0.00,WUHU216HW,2013-01-01 18:19:00,
2013-01-01 11:20:00,39.6,25.5,30.16,WSW,248,0.4,4.5,57,0.00,,,0.00,WUHU216HW,2013-01-01 18:20:00,
2013-01-01 11:21:00,39.6,25.5,30.16,North,0,2.2,4.5,57,0.00,,,0.00,WUHU216HW,2013-01-01 18:21:00,
2013-01-01 11:22:00,39.8,25.7,30.16,WNW,293,0.2,2.9,57,0.00,,,0.00,WUHU216HW,2013-01-01 18:22:00,
2013-01-01 11:23:00,39.8,25.7,30.17,North,0,1.6,2.5,57,0.00,,,0.00,WUHU216HW,2013-01-01 18:23:00,
2013-01-01 11:24:00,39.8,25.3,30.16,NNE,23,3.8,3.8,56,0.00,,,0.00,WUHU216HW,2013-01-01 18:24:00,
2013-01-01 11:25:00,39.6,24.7,30.17,ENE,68,0.2,3.8,55,0.00,,,0.00,WUHU216HW,2013-01-01 18:25:00,
2013-01-01 11:26:00,39.8,24.9,30.16,NNW,338,1.1,3.8,55,0.00,,,0.00,WUHU216HW,2013-01-01 18:26:00,
2013-01-01 11:27:00,39.6,24.2,30.17,North,0,1.8,3.8,54,0.00,,,0.00,WUHU216HW,2013-01-01 18:27:00,
2013-01-01 11:28:00,39.8,24.4,30.17,North,0,1.8,3.8,54,0.00,,,0.00,WUHU216HW,2013-01-01 18:28:00,
2013-01-01 11:29:00,39.8,24.9,30.17,SE,135,1.1,3.8,55,0.00,,,0.00,WUHU216HW,2013-01-01 18:29:00,
2013-01-01 11:30:00,40.0,25.0,30.17,SE,135,1.1,3.8,55,0.00,,,0.00,WUHU216HW,2013-01-01 18:30:00,
2013-01-01 11:31:00,40.0,25.0,30.17,SSE,158,0.2,3.8,55,0.00,,,0.00,WUHU216HW,2013-01-01 18:31:00,
2013-01-01 11:32:00,40.0,25.4,30.17,NW,315,2.7,3.8,56,0.00,,,0.00,WUHU216HW,2013-01-01 18:32:00,
2013-01-01 11:33:00,40.0,25.4,30.16,ENE,68,0.7,3.8,56,0.00,,,0.00,WUHU216HW,2013-01-01 18:33:00,
2013-01-01 11:34:00,40.1,25.6,30.16,SW,225,2.5,3.8,56,0.00,,,0.00,WUHU216HW,2013-01-01 18:34:00,
2013-01-01 11:35:00,40.1,25.1,30.16,WSW,248,1.6,2.7,55,0.00,,,0.00,WUHU216HW,2013-01-01 18:35:00,
2013-01-01 11:36:00,40.3,25.3,30.16,NNE,23,0.0,2.7,55,0.00,,,0.00,WUHU216HW,2013-01-01 18:36:00,
2013-01-01 11:37:00,40.5,25.5,30.16,East,90,0.7,2.7,55,0.00,,,0.00,WUHU216HW,2013-01-01 18:37:00,
2013-01-01 11:38:00,40.5,25.5,30.16,South,180,0.4,2.7,55,0.00,,,0.00,WUHU216HW,2013-01-01 18:38:00,
2013-01-01 11:39:00,40.5,25.5,30.16,South,180,0.0,2.7,55,0.00,,,0.00,WUHU216HW,2013-01-01 18:39:00,
2013-01-01 11:40:00,40.7,25.7,30.16,SSE,158,0.4,2.7,55,0.00,,,0.00,WUHU216HW,2013-01-01 18:40:00,
2013-01-01 11:41:00,40.7,25.7,30.16,NE,45,2.2,2.7,55,0.00,,,0.00,WUHU216HW,2013-01-01 18:41:00,
2013-01-01 11:42:00,40.9,25.8,30.16,North,0,1.8,2.7,55,0.00,,,0.00,WUHU216HW,2013-01-01 18:42:00,
2013-01-01 11:43:00,40.9,25.4,30.15,North,0,0.7,2.7,54,0.00,,,0.00,WUHU216HW,2013-01-01 18:43:00,
2013-01-01 11:44:00,41.0,25.1,30.15,North,0,2.5,2.7,53,0.00,,,0.00,WUHU216HW,2013-01-01 18:44:00,
2013-01-01 11:45:00,41.0,25.1,30.15,North,0,1.8,2.7,53,0.00,,,0.00,WUHU216HW,2013-01-01 18:45:00,
2013-01-01 11:46:00,41.0,25.1,30.15,NNE,23,2.9,2.9,53,0.00,,,0.00,WUHU216HW,2013-01-01 18:46:00,
2013-01-01 11:47:00,41.0,25.1,30.15,ENE,68,1.1,2.9,53,0.00,,,0.00,WUHU216HW,2013-01-01 18:47:00,
2013-01-01 11:48:00,41.0,25.1,30.15,NNE,23,0.7,2.9,53,0.00,,,0.00,WUHU216HW,2013-01-01 18:48:00,
2013-01-01 11:49:00,41.0,25.1,30.15,North,0,3.4,3.4,53,0.00,,,0.00,WUHU216HW,2013-01-01 18:49:00,
2013-01-01 11:50:00,41.2,24.9,30.15,NNW,338,1.8,3.4,52,0.00,,,0.00,WUHU216HW,2013-01-01 18:50:00,
2013-01-01 11:51:00,41.2,25.3,30.15,WSW,248,1.3,3.4,53,0.00,,,0.00,WUHU216HW,2013-01-01 18:51:00,
2013-01-01 11:52:00,41.2,25.3,30.15,SW,225,0.2,3.4,53,0.00,,,0.00,WUHU216HW,2013-01-01 18:52:00,
2013-01-01 11:53:00,41.0,25.1,30.15,ENE,68,1.6,3.4,53,0.00,,,0.00,WUHU216HW,2013-01-01 18:53:00,
2013-01-01 11:54:00,41.0,25.1,30.15,SE,135,1.6,3.4,53,0.00,,,0.00,WUHU216HW,2013-01-01 18:54:00,
2013-01-01 11:55:00,41.0,24.7,30.15,SSE,158,2.5,3.4,52,0.00,,,0.00,WUHU216HW,2013-01-01 18:55:00,
2013-01-01 11:56:00,41.0,25.1,30.15,SSE,158,1.3,3.4,53,0.00,,,0.00,WUHU216HW,2013-01-01 18:56:00,
2013-01-01 11:57:00,41.2,25.3,30.15,ESE,113,1.8,3.4,53,0.00,,,0.00,WUHU216HW,2013-01-01 18:57:00,
2013-01-01 11:58:00,41.4,25.0,30.14,East,90,1.8,3.4,52,0.00,,,0.00,WUHU216HW,2013-01-01 18:58:00,
2013-01-01 11:59:00,41.4,25.0,30.15,East,90,1.6,3.4,52,0.00,,,0.00,WUHU216HW,2013-01-01 18:59:00,
2013-01-01 12:00:00,41.6,25.2,30.15,East,90,1.8,2.9,52,0.00,,,0.00,WUHU216HW,2013-01-01 19:00:00,
2013-01-01 12:01:00,41.6,25.2,30.15,SE,135,0.9,2.9,52,0.00,,,0.00,WUHU216HW,2013-01-01 19:01:00,
2013-01-01 12:02:00,41.8,25.4,30.14,SSE,158,0.2,2.9,52,0.00,,,0.00,WUHU216HW,2013-01-01 19:02:00,
2013-01-01 12:03:00,41.8,25.4,30.14,North,0,0.4,2.9,52,0.00,,,0.00,WUHU216HW,2013-01-01 19:03:00,
2013-01-01 12:04:00,41.9,25.6,30.14,North,0,0.9,2.9,52,0.00,,,0.00,WUHU216HW,2013-01-01 19:04:00,
2013-01-01 12:05:00,41.9,25.1,30.14,NNE,23,1.1,2.9,51,0.00,,,0.00,WUHU216HW,2013-01-01 19:05:00,
2013-01-01 12:06:00,42.1,25.3,30.14,ENE,68,1.8,2.9,51,0.00,,,0.00,WUHU216HW,2013-01-01 19:06:00,
2013-01-01 12:07:00,42.1,24.8,30.14,NNE,23,2.2,4.7,50,0.00,,,0.00,WUHU216HW,2013-01-01 19:07:00,
2013-01-01 12:08:00,42.1,24.3,30.14,NNE,23,4.0,4.7,49,0.00,,,0.00,WUHU216HW,2013-01-01 19:08:00,
2013-01-01 12:09:00,42.3,25.0,30.14,NE,45,2.7,4.7,50,0.00,,,0.00,WUHU216HW,2013-01-01 19:09:00,
2013-01-01 12:10:00,42.1,24.8,30.14,NNE,23,1.8,4.7,50,0.00,,,0.00,WUHU216HW,2013-01-01 19:10:00,
2013-01-01 12:11:00,42.1,24.3,30.14,NNE,23,3.1,4.7,49,0.00,,,0.00,WUHU216HW,2013-01-01 19:11:00,
2013-01-01 12:12:00,42.1,24.3,30.13,North,0,1.6,4.7,49,0.00,,,0.00,WUHU216HW,2013-01-01 19:12:00,
2013-01-01 12:13:00,42.1,24.3,30.13,North,0,1.8,4.7,49,0.00,,,0.00,WUHU216HW,2013-01-01 19:13:00,
2013-01-01 12:14:00,42.1,24.3,30.13,NW,315,1.8,4.7,49,0.00,,,0.00,WUHU216HW,2013-01-01 19:14:00,
2013-01-01 12:15:00,42.1,24.3,30.13,NW,315,2.5,4.7,49,0.00,,,0.00,WUHU216HW,2013-01-01 19:15:00,
2013-01-01 12:16:00,42.1,24.3,30.13,West,270,1.6,4.7,49,0.00,,,0.00,WUHU216HW,2013-01-01 19:16:00,
2013-01-01 12:17:00,42.1,24.3,30.13,WSW,248,2.5,4.0,49,0.00,,,0.00,WUHU216HW,2013-01-01 19:17:00,
2013-01-01 12:18:00,42.1,23.8,30.13,NNW,338,2.2,4.0,48,0.00,,,0.00,WUHU216HW,2013-01-01 19:18:00,
2013-01-01 12:19:00,42.1,24.3,30.13,East,90,0.4,3.4,49,0.00,,,0.00,WUHU216HW,2013-01-01 19:19:00,
2013-01-01 12:20:00,42.1,24.3,30.13,SSW,203,0.7,3.4,49,0.00,,,0.00,WUHU216HW,2013-01-01 19:20:00,
2013-01-01 12:21:00,42.1,24.3,30.13,SSW,203,0.4,3.4,49,0.00,,,0.00,WUHU216HW,2013-01-01 19:21:00,
2013-01-01 12:22:00,42.1,24.3,30.13,SW,225,5.4,5.4,49,0.00,,,0.00,WUHU216HW,2013-01-01 19:22:00,
2013-01-01 12:23:00,42.3,23.9,30.13,WNW,293,4.7,5.4,48,0.00,,,0.00,WUHU216HW,2013-01-01 19:23:00,
2013-01-01 12:24:00,42.5,24.1,30.13,NW,315,4.3,5.4,48,0.00,,,0.00,WUHU216HW,2013-01-01 19:24:00,
2013-01-01 12:25:00,42.5,24.1,30.13,WNW,293,1.3,5.4,48,0.00,,,0.00,WUHU216HW,2013-01-01 19:25:00,
2013-01-01 12:26:00,42.5,24.1,30.13,NNW,338,3.8,5.4,48,0.00,,,0.00,WUHU216HW,2013-01-01 19:26:00,
2013-01-01 12:27:00,42.7,24.3,30.13,SW,225,1.1,5.4,48,0.00,,,0.00,WUHU216HW,2013-01-01 19:27:00,
2013-01-01 12:28:00,42.5,24.1,30.13,West,270,2.2,5.4,48,0.00,,,0.00,WUHU216HW,2013-01-01 19:28:00,
2013-01-01 12:29:00,42.5,23.6,30.13,SW,225,3.1,5.4,47,0.00,,,0.00,WUHU216HW,2013-01-01 19:29:00,
2013-01-01 12:30:00,42.5,23.6,30.13,WNW,293,2.2,5.4,47,0.00,,,0.00,WUHU216HW,2013-01-01 19:30:00,
2013-01-01 12:31:00,42.5,23.6,30.13,North,0,2.9,5.4,47,0.00,,,0.00,WUHU216HW,2013-01-01 19:31:00,
2013-01-01 12:32:00,42.7,23.8,30.12,North,0,2.5,4.7,47,0.00,,,0.00,WUHU216HW,2013-01-01 19:32:00,
2013-01-01 12:33:00,42.7,23.2,30.12,North,0,2.5,4.7,46,0.00,,,0.00,WUHU216HW,2013-01-01 19:33:00,
2013-01-01 12:34:00,42.7,23.2,30.12,NNW,338,3.1,4.7,46,0.00,,,0.00,WUHU216HW,2013-01-01 19:34:00,
2013-01-01 12:35:00,42.8,23.4,30.12,NNW,338,1.1,4.7,46,0.00,,,0.00,WUHU216HW,2013-01-01 19:35:00,
2013-01-01 12:36:00,42.8,23.4,30.12,NNE,23,4.7,4.7,46,0.00,,,0.00,WUHU216HW,2013-01-01 19:36:00,
2013-01-01 12:37:00,42.8,23.4,30.12,NNW,338,0.9,4.7,46,0.00,,,0.00,WUHU216HW,2013-01-01 19:37:00,
2013-01-01 12:38:00,42.8,23.4,30.12,NNE,23,3.1,4.7,46,0.00,,,0.00,WUHU216HW,2013-01-01 19:38:00,
2013-01-01 12:39:00,42.8,22.9,30.12,NNE,23,1.8,4.7,45,0.00,,,0.00,WUHU216HW,2013-01-01 19:39:00,
2013-01-01 12:40:00,42.8,22.9,30.12,NE,45,0.7,4.7,45,0.00,,,0.00,WUHU216HW,2013-01-01 19:40:00,
2013-01-01 12:41:00,43.0,23.1,30.12,NNE,23,0.4,4.7,45,0.00,,,0.00,WUHU216HW,2013-01-01 19:41:00,
2013-01-01 12:42:00,43.0,23.1,30.11,North,0,2.5,4.7,45,0.00,,,0.00,WUHU216HW,2013-01-01 19:42:00,
2013-01-01 12:43:00,43.2,22.7,30.11,NE,45,1.3,4.7,44,0.00,,,0.00,WUHU216HW,2013-01-01 19:43:00,
2013-01-01 12:44:00,43.2,23.2,30.11,NE,45,0.4,4.7,45,0.00,,,0.00,WUHU216HW,2013-01-01 19:44:00,
2013-01-01 12:45:00,43.2,23.2,30.11,ESE,113,2.9,4.7,45,0.00,,,0.00,WUHU216HW,2013-01-01 19:45:00,
2013-01-01 12:46:00,43.2,23.2,30.11,East,90,2.5,4.7,45,0.00,,,0.00,WUHU216HW,2013-01-01 19:46:00,
2013-01-01 12:47:00,43.4,23.3,30.11,ENE,68,2.9,3.1,45,0.00,,,0.00,WUHU216HW,2013-01-01 19:47:00,
2013-01-01 12:48:00,43.4,23.3,30.11,ENE,68,0.9,3.1,45,0.00,,,0.00,WUHU216HW,2013-01-01 19:48:00,
2013-01-01 12:49:00,43.4,23.3,30.11,East,90,0.4,3.1,45,0.00,,,0.00,WUHU216HW,2013-01-01 19:49:00,
2013-01-01 12:50:00,43.6,23.5,30.11,SE,135,0.4,3.1,45,0.00,,,0.00,WUHU216HW,2013-01-01 19:50:00,
2013-01-01 12:51:00,43.6,23.5,30.11,SSW,203,0.4,3.1,45,0.00,,,0.00,WUHU216HW,2013-01-01 19:51:00,
2013-01-01 12:52:00,43.6,23.5,30.11,SSE,158,0.9,3.1,45,0.00,,,0.00,WUHU216HW,2013-01-01 19:52:00,
2013-01-01 12:53:00,43.6,23.5,30.11,SSE,158,0.7,3.1,45,0.00,,,0.00,WUHU216HW,2013-01-01 19:53:00,
2013-01-01 12:54:00,43.7,23.7,30.11,SE,135,4.5,4.5,45,0.00,,,0.00,WUHU216HW,2013-01-01 19:54:00,
2013-01-01 12:55:00,43.9,23.9,30.12,ESE,113,2.5,4.5,45,0.00,,,0.00,WUHU216HW,2013-01-01 19:55:00,
2013-01-01 12:56:00,43.9,23.9,30.11,SSE,158,3.1,4.5,45,0.00,,,0.00,WUHU216HW,2013-01-01 19:56:00,
2013-01-01 12:57:00,44.1,24.0,30.12,SE,135,0.7,4.5,45,0.00,,,0.00,WUHU216HW,2013-01-01 19:57:00,
2013-01-01 12:58:00,44.3,24.1,30.11,SE,135,1.3,4.5,45,0.00,,,0.00,WUHU216HW,2013-01-01 19:58:00,
2013-01-01 12:59:00,44.3,24.1,30.11,SE,135,0.2,4.5,45,0.00,,,0.00,WUHU216HW,2013-01-01 19:59:00,
2013-01-01 13:00:00,44.3,24.1,30.11,ENE,68,0.2,4.5,45,0.00,,,0.00,WUHU216HW,2013-01-01 20:00:00,
2013-01-01 13:01:00,44.5,24.3,30.11,SE,135,2.0,4.5,45,0.00,,,0.00,WUHU216HW,2013-01-01 20:01:00,
2013-01-01 13:02:00,44.5,24.3,30.11,SSE,158,1.1,4.5,45,0.00,,,0.00,WUHU216HW,2013-01-01 20:02:00,
2013-01-01 13:03:00,44.6,24.5,30.11,SE,135,1.3,4.5,45,0.00,,,0.00,WUHU216HW,2013-01-01 20:03:00,
2013-01-01 13:04:00,44.6,24.5,30.10,ESE,113,0.7,4.5,45,0.00,,,0.00,WUHU216HW,2013-01-01 20:04:00,
2013-01-01 13:05:00,44.6,24.5,30.10,SE,135,1.1,3.4,45,0.00,,,0.00,WUHU216HW,2013-01-01 20:05:00,
2013-01-01 13:06:00,44.6,24.5,30.11,SE,135,0.9,3.1,45,0.00,,,0.00,WUHU216HW,2013-01-01 20:06:00,
2013-01-01 13:07:00,44.6,23.9,30.11,ENE,68,0.4,2.5,44,0.00,,,0.00,WUHU216HW,2013-01-01 20:07:00,
2013-01-01 13:08:00,44.6,23.4,30.10,NNW,338,1.8,2.5,43,0.00,,,0.00,WUHU216HW,2013-01-01 20:08:00,
2013-01-01 13:09:00,44.6,23.4,30.11,SW,225,0.7,2.5,43,0.00,,,0.00,WUHU216HW,2013-01-01 20:09:00,
2013-01-01 13:10:00,44.6,23.4,30.10,SW,225,2.9,2.9,43,0.00,,,0.00,WUHU216HW,2013-01-01 20:10:00,
2013-01-01 13:11:00,44.6,23.9,30.10,SE,135,2.0,2.9,44,0.00,,,0.00,WUHU216HW,2013-01-01 20:11:00,
2013-01-01 13:12:00,44.5,23.8,30.10,South,180,1.1,2.9,44,0.00,,,0.00,WUHU216HW,2013-01-01 20:12:00,
2013-01-01 13:13:00,44.5,23.8,30.10,SE,135,1.8,2.9,44,0.00,,,0.00,WUHU216HW,2013-01-01 20:13:00,
2013-01-01 13:14:00,44.6,23.9,30.10,SE,135,3.6,3.6,44,0.00,,,0.00,WUHU216HW,2013-01-01 20:14:00,
2013-01-01 13:15:00,44.5,23.8,30.10,SSE,158,0.7,3.6,44,0.00,,,0.00,WUHU216HW,2013-01-01 20:15:00,
2013-01-01 13:16:00,44.6,23.9,30.10,WSW,248,2.0,3.6,44,0.00,,,0.00,WUHU216HW,2013-01-01 20:16:00,
2013-01-01 13:17:00,44.5,23.2,30.10,WSW,248,4.0,4.3,43,0.00,,,0.00,WUHU216HW,2013-01-01 20:17:00,
2013-01-01 13:18:00,44.5,23.2,30.10,SW,225,0.4,4.3,43,0.00,,,0.00,WUHU216HW,2013-01-01 20:18:00,
2013-01-01 13:19:00,44.6,23.4,30.10,SSW,203,0.9,4.3,43,0.00,,,0.00,WUHU216HW,2013-01-01 20:19:00,
2013-01-01 13:20:00,44.6,23.4,30.10,SW,225,0.7,4.3,43,0.00,,,0.00,WUHU216HW,2013-01-01 20:20:00,
2013-01-01 13:21:00,44.6,23.4,30.10,SW,225,2.5,4.3,43,0.00,,,0.00,WUHU216HW,2013-01-01 20:21:00,
2013-01-01 13:22:00,44.6,23.4,30.10,SSE,158,3.6,4.3,43,0.00,,,0.00,WUHU216HW,2013-01-01 20:22:00,
2013-01-01 13:23:00,44.8,23.6,30.10,South,180,3.4,4.3,43,0.00,,,0.00,WUHU216HW,2013-01-01 20:23:00,
2013-01-01 13:24:00,45.0,23.8,30.10,SSW,203,3.8,4.3,43,0.00,,,0.00,WUHU216HW,2013-01-01 20:24:00,
2013-01-01 13:25:00,45.0,23.8,30.10,SSW,203,2.9,4.3,43,0.00,,,0.00,WUHU216HW,2013-01-01 20:25:00,
2013-01-01 13:26:00,45.2,23.9,30.10,SSE,158,1.8,4.3,43,0.00,,,0.00,WUHU216HW,2013-01-01 20:26:00,
2013-01-01 13:27:00,45.4,24.0,30.10,SE,135,3.8,4.0,43,0.00,,,0.00,WUHU216HW,2013-01-01 20:27:00,
2013-01-01 13:28:00,45.5,24.2,30.10,SSW,203,2.7,4.0,43,0.00,,,0.00,WUHU216HW,2013-01-01 20:28:00,
2013-01-01 13:29:00,45.5,24.2,30.10,SSW,203,3.6,4.0,43,0.00,,,0.00,WUHU216HW,2013-01-01 20:29:00,
2013-01-01 13:30:00,45.7,24.4,30.10,SW,225,2.2,4.0,43,0.00,,,0.00,WUHU216HW,2013-01-01 20:30:00,
2013-01-01 13:31:00,45.7,24.4,30.11,SW,225,2.9,4.0,43,0.00,,,0.00,WUHU216HW,2013-01-01 20:31:00,
2013-01-01 13:32:00,45.7,24.4,30.11,West,270,2.5,4.0,43,0.00,,,0.00,WUHU216HW,2013-01-01 20:32:00,
2013-01-01 13:33:00,45.9,24.6,30.11,WSW,248,1.8,4.0,43,0.00,,,0.00,WUHU216HW,2013-01-01 20:33:00,
2013-01-01 13:34:00,45.7,23.9,30.11,WNW,293,2.2,4.0,42,0.00,,,0.00,WUHU216HW,2013-01-01 20:34:00,
2013-01-01 13:35:00,45.7,23.3,30.11,SSW,203,2.5,4.0,41,0.00,,,0.00,WUHU216HW,2013-01-01 20:35:00,
2013-01-01 13:36:00,45.7,23.3,30.11,SW,225,1.8,4.0,41,0.00,,,0.00,WUHU216HW,2013-01-01 20:36:00,
2013-01-01 13:37:00,45.5,23.7,30.10,SW,225,2.0,3.8,42,0.00,,,0.00,WUHU216HW,2013-01-01 20:37:00,
2013-01-01 13:38:00,45.5,23.1,30.10,NW,315,1.6,3.6,41,0.00,,,0.00,WUHU216HW,2013-01-01 20:38:00,
2013-01-01 13:39:00,45.4,23.0,30.10,WSW,248,0.4,3.6,41,0.00,,,0.00,WUHU216HW,2013-01-01 20:39:00,
2013-01-01 13:40:00,45.4,23.0,30.10,SSE,158,1.1,3.1,41,0.00,,,0.00,WUHU216HW,2013-01-01 20:40:00,
2013-01-01 13:41:00,45.4,23.0,30.10,NW,315,0.2,3.1,41,0.00,,,0.00,WUHU216HW,2013-01-01 20:41:00,
2013-01-01 13:42:00,45.4,23.0,30.10,SSW,203,2.0,3.1,41,0.00,,,0.00,WUHU216HW,2013-01-01 20:42:00,
2013-01-01 13:43:00,45.4,22.4,30.10,SSE,158,1.8,3.1,40,0.00,,,0.00,WUHU216HW,2013-01-01 20:43:00,
2013-01-01 13:44:00,45.2,22.2,30.10,North,0,0.7,3.1,40,0.00,,,0.00,WUHU216HW,2013-01-01 20:44:00,
2013-01-01 13:45:00,45.2,22.2,30.10,SE,135,2.0,3.6,40,0.00,,,0.00,WUHU216HW,2013-01-01 20:45:00,
2013-01-01 13:46:00,45.2,22.2,30.10,SSW,203,1.1,3.6,40,0.00,,,0.00,WUHU216HW,2013-01-01 20:46:00,
2013-01-01 13:47:00,45.4,23.0,30.10,SE,135,1.8,3.6,41,0.00,,,0.00,WUHU216HW,2013-01-01 20:47:00,
2013-01-01 13:48:00,45.4,23.0,30.10,NE,45,0.9,3.6,41,0.00,,,0.00,WUHU216HW,2013-01-01 20:48:00,
2013-01-01 13:49:00,45.4,23.0,30.10,SSE,158,1.1,3.6,41,0.00,,,0.00,WUHU216HW,2013-01-01 20:49:00,
2013-01-01 13:50:00,45.4,23.0,30.10,SE,135,0.2,3.6,41,0.00,,,0.00,WUHU216HW,2013-01-01 20:50:00,
2013-01-01 13:51:00,45.4,23.0,30.10,East,90,0.4,3.6,41,0.00,,,0.00,WUHU216HW,2013-01-01 20:51:00,
2013-01-01 13:52:00,45.5,23.1,30.10,SW,225,0.2,3.6,41,0.00,,,0.00,WUHU216HW,2013-01-01 20:52:00,
2013-01-01 13:53:00,45.4,23.0,30.10,SSW,203,3.4,3.8,41,0.00,,,0.00,WUHU216HW,2013-01-01 20:53:00,
2013-01-01 13:54:00,45.5,23.1,30.10,SSW,203,1.3,3.8,41,0.00,,,0.00,WUHU216HW,2013-01-01 20:54:00,
2013-01-01 13:55:00,45.7,23.3,30.10,SW,225,1.1,3.8,41,0.00,,,0.00,WUHU216HW,2013-01-01 20:55:00,
2013-01-01 13:56:00,45.7,23.3,30.09,SSW,203,1.8,3.8,41,0.00,,,0.00,WUHU216HW,2013-01-01 20:56:00,
2013-01-01 13:57:00,45.7,22.8,30.09,SSE,158,1.3,3.8,40,0.00,,,0.00,WUHU216HW,2013-01-01 20:57:00,
2013-01-01 13:58:00,45.9,23.0,30.09,South,180,2.5,3.8,40,0.00,,,0.00,WUHU216HW,2013-01-01 20:58:00,
2013-01-01 13:59:00,45.9,23.0,30.09,SSE,158,1.3,3.8,40,0.00,,,0.00,WUHU216HW,2013-01-01 20:59:00,
2013-01-01 14:00:00,46.1,23.0,30.09,South,180,0.4,3.8,40,0.00,,,0.00,WUHU216HW,2013-01-01 21:00:00,
2013-01-01 14:01:00,46.1,23.0,30.09,SSW,203,1.1,3.8,40,0.00,,,0.00,WUHU216HW,2013-01-01 21:01:00,
2013-01-01 14:02:00,46.3,23.2,30.09,SW,225,2.2,3.8,40,0.00,,,0.00,WUHU216HW,2013-01-01 21:02:00,
2013-01-01 14:03:00,46.4,23.4,30.09,SW,225,2.5,3.4,40,0.00,,,0.00,WUHU216HW,2013-01-01 21:03:00,
2013-01-01 14:04:00,46.4,23.4,30.09,WSW,248,0.9,3.4,40,0.00,,,0.00,WUHU216HW,2013-01-01 21:04:00,
2013-01-01 14:05:00,46.4,23.4,30.08,SW,225,1.3,3.4,40,0.00,,,0.00,WUHU216HW,2013-01-01 21:05:00,
2013-01-01 14:06:00,46.4,23.4,30.08,South,180,1.1,3.4,40,0.00,,,0.00,WUHU216HW,2013-01-01 21:06:00,
2013-01-01 14:07:00,46.6,23.6,30.08,SSW,203,2.5,3.4,40,0.00,,,0.00,WUHU216HW,2013-01-01 21:07:00,
2013-01-01 14:08:00,46.8,23.8,30.09,SSW,203,1.1,3.4,40,0.00,,,0.00,WUHU216HW,2013-01-01 21:08:00,
2013-01-01 14:09:00,46.8,23.8,30.09,SSW,203,2.5,3.4,40,0.00,,,0.00,WUHU216HW,2013-01-01 21:09:00,
2013-01-01 14:10:00,46.8,23.8,30.09,SSW,203,4.7,4.7,40,0.00,,,0.00,WUHU216HW,2013-01-01 21:10:00,
2013-01-01 14:11:00,46.8,23.8,30.09,SSW,203,2.5,4.7,40,0.00,,,0.00,WUHU216HW,2013-01-01 21:11:00,
2013-01-01 14:12:00,47.0,23.9,30.09,SW,225,3.1,4.7,40,0.00,,,0.00,WUHU216HW,2013-01-01 21:12:00,
2013-01-01 14:13:00,47.0,23.2,30.09,SSW,203,3.4,4.7,39,0.00,,,0.00,WUHU216HW,2013-01-01 21:13:00,
2013-01-01 14:14:00,47.0,23.2,30.09,SW,225,3.6,4.7,39,0.00,,,0.00,WUHU216HW,2013-01-01 21:14:00,
2013-01-01 14:15:00,47.0,23.2,30.09,SSW,203,1.8,4.7,39,0.00,,,0.00,WUHU216HW,2013-01-01 21:15:00,
2013-01-01 14:16:00,47.0,23.2,30.09,SSW,203,1.6,4.7,39,0.00,,,0.00,WUHU216HW,2013-01-01 21:16:00,
2013-01-01 14:17:00,47.0,23.2,30.09,SSW,203,3.4,4.7,39,0.00,,,0.00,WUHU216HW,2013-01-01 21:17:00,
2013-01-01 14:18:00,47.0,23.2,30.09,South,180,3.4,4.7,39,0.00,,,0.00,WUHU216HW,2013-01-01 21:18:00,
2013-01-01 14:19:00,47.2,23.4,30.09,SW,225,2.0,4.7,39,0.00,,,0.00,WUHU216HW,2013-01-01 21:19:00,
2013-01-01 14:20:00,47.2,23.4,30.09,West,270,1.1,4.0,39,0.00,,,0.00,WUHU216HW,2013-01-01 21:20:00,
2013-01-01 14:21:00,47.2,23.4,30.09,NW,315,2.2,4.0,39,0.00,,,0.00,WUHU216HW,2013-01-01 21:21:00,
2013-01-01 14:22:00,47.2,23.4,30.09,SW,225,2.2,4.0,39,0.00,,,0.00,WUHU216HW,2013-01-01 21:22:00,
2013-01-01 14:23:00,47.0,23.2,30.09,SW,225,2.5,4.0,39,0.00,,,0.00,WUHU216HW,2013-01-01 21:23:00,
2013-01-01 14:24:00,47.0,22.6,30.09,SSE,158,0.9,3.8,38,0.00,,,0.00,WUHU216HW,2013-01-01 21:24:00,
2013-01-01 14:25:00,47.0,22.6,30.09,SSW,203,1.3,3.8,38,0.00,,,0.00,WUHU216HW,2013-01-01 21:25:00,
2013-01-01 14:26:00,47.0,22.6,30.09,South,180,0.9,3.8,38,0.00,,,0.00,WUHU216HW,2013-01-01 21:26:00,
2013-01-01 14:27:00,46.8,22.4,30.09,SW,225,1.6,3.8,38,0.00,,,0.00,WUHU216HW,2013-01-01 21:27:00,
2013-01-01 14:28:00,46.8,22.4,30.10,West,270,1.8,3.4,38,0.00,,,0.00,WUHU216HW,2013-01-01 21:28:00,
2013-01-01 14:29:00,46.8,22.4,30.10,WNW,293,0.2,2.5,38,0.00,,,0.00,WUHU216HW,2013-01-01 21:29:00,
2013-01-01 14:30:00,46.6,22.2,30.10,WNW,293,0.2,2.5,38,0.00,,,0.00,WUHU216HW,2013-01-01 21:30:00,
2013-01-01 14:31:00,46.6,22.2,30.10,NW,315,1.3,2.5,38,0.00,,,0.00,WUHU216HW,2013-01-01 21:31:00,
2013-01-01 14:32:00,46.6,22.2,30.10,NW,315,1.1,2.5,38,0.00,,,0.00,WUHU216HW,2013-01-01 21:32:00,
2013-01-01 14:33:00,46.6,22.2,30.09,WNW,293,1.8,2.7,38,0.00,,,0.00,WUHU216HW,2013-01-01 21:33:00,
2013-01-01 14:34:00,46.6,22.2,30.09,North,0,3.1,3.1,38,0.00,,,0.00,WUHU216HW,2013-01-01 21:34:00,
2013-01-01 14:35:00,46.6,21.6,30.09,North,0,3.1,3.1,37,0.00,,,0.00,WUHU216HW,2013-01-01 21:35:00,
2013-01-01 14:36:00,46.6,20.9,30.09,NNW,338,2.0,3.1,36,0.00,,,0.00,WUHU216HW,2013-01-01 21:36:00,
2013-01-01 14:37:00,46.6,21.6,30.08,NW,315,1.8,3.1,37,0.00,,,0.00,WUHU216HW,2013-01-01 21:37:00,
2013-01-01 14:38:00,46.4,21.4,30.08,WNW,293,1.8,3.1,37,0.00,,,0.00,WUHU216HW,2013-01-01 21:38:00,
2013-01-01 14:39:00,46.4,21.4,30.08,WNW,293,1.3,3.1,37,0.00,,,0.00,WUHU216HW,2013-01-01 21:39:00,
2013-01-01 14:40:00,46.4,21.4,30.09,WNW,293,1.8,3.1,37,0.00,,,0.00,WUHU216HW,2013-01-01 21:40:00,
2013-01-01 14:41:00,46.3,21.2,30.09,NW,315,0.9,3.1,37,0.00,,,0.00,WUHU216HW,2013-01-01 21:41:00,
2013-01-01 14:42:00,46.3,21.2,30.10,NW,315,1.6,3.1,37,0.00,,,0.00,WUHU216HW,2013-01-01 21:42:00,
2013-01-01 14:43:00,46.3,21.2,30.10,North,0,0.9,3.1,37,0.00,,,0.00,WUHU216HW,2013-01-01 21:43:00,
2013-01-01 14:44:00,46.3,21.2,30.10,NNW,338,1.1,3.1,37,0.00,,,0.00,WUHU216HW,2013-01-01 21:44:00,
2013-01-01 14:45:00,46.3,21.2,30.09,WNW,293,2.0,3.1,37,0.00,,,0.00,WUHU216HW,2013-01-01 21:45:00,
2013-01-01 14:46:00,46.3,21.2,30.09,NW,315,1.8,2.5,37,0.00,,,0.00,WUHU216HW,2013-01-01 21:46:00,
2013-01-01 14:47:00,46.1,21.1,30.10,NNW,338,1.3,2.5,37,0.00,,,0.00,WUHU216HW,2013-01-01 21:47:00,
2013-01-01 14:48:00,46.3,21.2,30.10,NW,315,2.2,2.2,37,0.00,,,0.00,WUHU216HW,2013-01-01 21:48:00,
2013-01-01 14:49:00,46.3,21.2,30.09,NW,315,1.1,2.2,37,0.00,,,0.00,WUHU216HW,2013-01-01 21:49:00,
2013-01-01 14:50:00,46.1,21.1,30.09,North,0,0.4,2.2,37,0.00,,,0.00,WUHU216HW,2013-01-01 21:50:00,
2013-01-01 14:51:00,46.3,21.2,30.09,NNW,338,0.2,2.2,37,0.00,,,0.00,WUHU216HW,2013-01-01 21:51:00,
2013-01-01 14:52:00,46.3,21.2,30.09,North,0,0.2,2.2,37,0.00,,,0.00,WUHU216HW,2013-01-01 21:52:00,
2013-01-01 14:53:00,46.4,21.4,30.09,SSW,203,1.1,2.2,37,0.00,,,0.00,WUHU216HW,2013-01-01 21:53:00,
2013-01-01 14:54:00,46.4,21.4,30.09,SSE,158,1.1,2.2,37,0.00,,,0.00,WUHU216HW,2013-01-01 21:54:00,
2013-01-01 14:55:00,46.4,21.4,30.09,SSE,158,0.2,2.2,37,0.00,,,0.00,WUHU216HW,2013-01-01 21:55:00,
2013-01-01 14:56:00,46.6,21.6,30.09,SW,225,0.4,2.2,37,0.00,,,0.00,WUHU216HW,2013-01-01 21:56:00,
2013-01-01 14:57:00,46.8,21.7,30.09,West,270,0.4,2.2,37,0.00,,,0.00,WUHU216HW,2013-01-01 21:57:00,
2013-01-01 14:58:00,47.0,22.6,30.09,SSE,158,2.9,2.9,38,0.00,,,0.00,WUHU216HW,2013-01-01 21:58:00,
2013-01-01 14:59:00,47.2,22.7,30.09,SE,135,2.2,2.9,38,0.00,,,0.00,WUHU216HW,2013-01-01 21:59:00,
2013-01-01 15:00:00,47.2,22.7,30.08,SSE,158,1.6,2.9,38,0.00,,,0.00,WUHU216HW,2013-01-01 22:00:00,
2013-01-01 15:01:00,47.2,22.7,30.08,South,180,1.1,2.9,38,0.00,,,0.00,WUHU216HW,2013-01-01 22:01:00,
2013-01-01 15:02:00,47.3,22.9,30.08,South,180,1.1,2.9,38,0.00,,,0.00,WUHU216HW,2013-01-01 22:02:00,
2013-01-01 15:03:00,47.5,23.0,30.09,SSE,158,0.9,2.9,38,0.00,,,0.00,WUHU216HW,2013-01-01 22:03:00,
2013-01-01 15:04:00,47.7,23.2,30.09,SSW,203,1.1,2.9,38,0.00,,,0.00,WUHU216HW,2013-01-01 22:04:00,
2013-01-01 15:05:00,47.7,23.2,30.09,SSW,203,4.7,4.7,38,0.00,,,0.00,WUHU216HW,2013-01-01 22:05:00,
2013-01-01 15:06:00,47.9,23.4,30.09,SSE,158,2.0,4.7,38,0.00,,,0.00,WUHU216HW,2013-01-01 22:06:00,
2013-01-01 15:07:00,47.9,23.4,30.09,SSW,203,1.8,4.7,38,0.00,,,0.00,WUHU216HW,2013-01-01 22:07:00,
2013-01-01 15:08:00,47.9,23.4,30.09,SSE,158,2.2,4.7,38,0.00,,,0.00,WUHU216HW,2013-01-01 22:08:00,
2013-01-01 15:09:00,47.7,23.2,30.09,SSE,158,1.8,4.7,38,0.00,,,0.00,WUHU216HW,2013-01-01 22:09:00,
2013-01-01 15:10:00,47.9,23.4,30.09,SSE,158,2.5,4.7,38,0.00,,,0.00,WUHU216HW,2013-01-01 22:10:00,
2013-01-01 15:11:00,47.7,23.2,30.09,South,180,4.7,4.7,38,0.00,,,0.00,WUHU216HW,2013-01-01 22:11:00,
2013-01-01 15:12:00,47.9,23.4,30.09,South,180,2.7,4.7,38,0.00,,,0.00,WUHU216HW,2013-01-01 22:12:00,
2013-01-01 15:13:00,47.9,23.4,30.09,SSW,203,5.1,5.1,38,0.00,,,0.00,WUHU216HW,2013-01-01 22:13:00,
2013-01-01 15:14:00,47.9,23.4,30.09,SW,225,5.1,5.8,38,0.00,,,0.00,WUHU216HW,2013-01-01 22:14:00,
2013-01-01 15:15:00,47.9,23.4,30.09,SSW,203,4.5,5.8,38,0.00,,,0.00,WUHU216HW,2013-01-01 22:15:00,
2013-01-01 15:16:00,47.9,23.4,30.09,SSW,203,1.8,5.8,38,0.00,,,0.00,WUHU216HW,2013-01-01 22:16:00,
2013-01-01 15:17:00,47.9,23.4,30.09,SSW,203,3.8,5.8,38,0.00,,,0.00,WUHU216HW,2013-01-01 22:17:00,
2013-01-01 15:18:00,47.9,23.4,30.09,South,180,2.7,5.8,38,0.00,,,0.00,WUHU216HW,2013-01-01 22:18:00,
2013-01-01 15:19:00,47.9,23.4,30.09,SSW,203,2.5,5.8,38,0.00,,,0.00,WUHU216HW,2013-01-01 22:19:00,
2013-01-01 15:20:00,47.7,23.2,30.09,SW,225,3.6,5.8,38,0.00,,,0.00,WUHU216HW,2013-01-01 22:20:00,
2013-01-01 15:21:00,47.7,23.2,30.09,SW,225,1.8,5.8,38,0.00,,,0.00,WUHU216HW,2013-01-01 22:21:00,
2013-01-01 15:22:00,47.7,23.2,30.09,WSW,248,1.6,5.8,38,0.00,,,0.00,WUHU216HW,2013-01-01 22:22:00,
2013-01-01 15:23:00,47.5,23.0,30.09,SW,225,0.4,5.8,38,0.00,,,0.00,WUHU216HW,2013-01-01 22:23:00,
2013-01-01 15:24:00,47.5,23.0,30.09,WSW,248,0.4,5.4,38,0.00,,,0.00,WUHU216HW,2013-01-01 22:24:00,
2013-01-01 15:25:00,47.2,22.1,30.09,WNW,293,1.1,4.9,37,0.00,,,0.00,WUHU216HW,2013-01-01 22:25:00,
2013-01-01 15:26:00,47.2,22.1,30.09,SW,225,1.8,4.9,37,0.00,,,0.00,WUHU216HW,2013-01-01 22:26:00,
2013-01-01 15:27:00,47.0,21.3,30.09,West,270,0.7,4.9,36,0.00,,,0.00,WUHU216HW,2013-01-01 22:27:00,
2013-01-01 15:28:00,46.8,21.1,30.10,WSW,248,1.1,3.6,36,0.00,,,0.00,WUHU216HW,2013-01-01 22:28:00,
2013-01-01 15:29:00,46.8,21.1,30.10,SW,225,1.3,3.6,36,0.00,,,0.00,WUHU216HW,2013-01-01 22:29:00,
2013-01-01 15:30:00,46.6,20.9,30.10,West,270,0.7,2.7,36,0.00,,,0.00,WUHU216HW,2013-01-01 22:30:00,
2013-01-01 15:31:00,46.6,20.9,30.09,WSW,248,0.0,2.5,36,0.00,,,0.00,WUHU216HW,2013-01-01 22:31:00,
2013-01-01 15:32:00,46.6,20.9,30.10,South,180,2.2,2.7,36,0.00,,,0.00,WUHU216HW,2013-01-01 22:32:00,
2013-01-01 15:33:00,46.6,20.9,30.10,SSE,158,1.8,2.7,36,0.00,,,0.00,WUHU216HW,2013-01-01 22:33:00,
2013-01-01 15:34:00,46.6,21.6,30.10,SSW,203,2.0,2.7,37,0.00,,,0.00,WUHU216HW,2013-01-01 22:34:00,
2013-01-01 15:35:00,46.6,21.6,30.10,SSW,203,2.5,2.7,37,0.00,,,0.00,WUHU216HW,2013-01-01 22:35:00,
2013-01-01 15:36:00,46.6,20.9,30.10,SW,225,4.0,4.0,36,0.00,,,0.00,WUHU216HW,2013-01-01 22:36:00,
2013-01-01 15:37:00,46.6,20.9,30.10,SW,225,2.7,4.0,36,0.00,,,0.00,WUHU216HW,2013-01-01 22:37:00,
2013-01-01 15:38:00,46.8,21.1,30.10,SSE,158,0.4,4.0,36,0.00,,,0.00,WUHU216HW,2013-01-01 22:38:00,
2013-01-01 15:39:00,46.8,21.1,30.10,SSE,158,0.9,4.0,36,0.00,,,0.00,WUHU216HW,2013-01-01 22:39:00,
2013-01-01 15:40:00,46.8,21.1,30.10,SSE,158,0.4,4.0,36,0.00,,,0.00,WUHU216HW,2013-01-01 22:40:00,
2013-01-01 15:41:00,47.0,21.9,30.10,SW,225,2.9,4.0,37,0.00,,,0.00,WUHU216HW,2013-01-01 22:41:00,
2013-01-01 15:42:00,47.0,21.3,30.10,South,180,4.3,4.3,36,0.00,,,0.00,WUHU216HW,2013-01-01 22:42:00,
2013-01-01 15:43:00,47.0,21.9,30.10,SSE,158,1.8,4.3,37,0.00,,,0.00,WUHU216HW,2013-01-01 22:43:00,
2013-01-01 15:44:00,47.2,22.1,30.10,SW,225,1.1,4.3,37,0.00,,,0.00,WUHU216HW,2013-01-01 22:44:00,
2013-01-01 15:45:00,47.2,22.1,30.10,South,180,0.4,4.3,37,0.00,,,0.00,WUHU216HW,2013-01-01 22:45:00,
2013-01-01 15:46:00,47.2,22.1,30.10,South,180,1.6,4.3,37,0.00,,,0.00,WUHU216HW,2013-01-01 22:46:00,
2013-01-01 15:47:00,47.2,22.1,30.10,SW,225,3.8,4.7,37,0.00,,,0.00,WUHU216HW,2013-01-01 22:47:00,
2013-01-01 15:48:00,47.2,22.1,30.10,SW,225,1.3,4.7,37,0.00,,,0.00,WUHU216HW,2013-01-01 22:48:00,
2013-01-01 15:49:00,47.2,22.1,30.11,SW,225,1.8,4.7,37,0.00,,,0.00,WUHU216HW,2013-01-01 22:49:00,
2013-01-01 15:50:00,47.2,22.1,30.10,SW,225,4.3,4.7,37,0.00,,,0.00,WUHU216HW,2013-01-01 22:50:00,
2013-01-01 15:51:00,47.2,22.1,30.11,WSW,248,3.1,4.7,37,0.00,,,0.00,WUHU216HW,2013-01-01 22:51:00,
2013-01-01 15:52:00,47.2,22.1,30.11,SSW,203,3.4,4.7,37,0.00,,,0.00,WUHU216HW,2013-01-01 22:52:00,
2013-01-01 15:53:00,47.0,21.3,30.10,SSW,203,2.5,4.7,36,0.00,,,0.00,WUHU216HW,2013-01-01 22:53:00,
2013-01-01 15:54:00,46.8,21.1,30.11,SE,135,2.0,4.7,36,0.00,,,0.00,WUHU216HW,2013-01-01 22:54:00,
2013-01-01 15:55:00,46.8,21.1,30.10,SSE,158,1.6,4.7,36,0.00,,,0.00,WUHU216HW,2013-01-01 22:55:00,
2013-01-01 15:56:00,46.8,21.1,30.11,SSE,158,1.8,4.7,36,0.00,,,0.00,WUHU216HW,2013-01-01 22:56:00,
2013-01-01 15:57:00,46.8,21.1,30.11,SSE,158,2.5,4.3,36,0.00,,,0.00,WUHU216HW,2013-01-01 22:57:00,
2013-01-01 15:58:00,47.0,21.3,30.11,SE,135,1.6,4.3,36,0.00,,,0.00,WUHU216HW,2013-01-01 22:58:00,
2013-01-01 15:59:00,47.0,21.3,30.10,SE,135,1.8,4.3,36,0.00,,,0.00,WUHU216HW,2013-01-01 22:59:00,
2013-01-01 16:00:00,46.8,21.1,30.11,SSE,158,1.8,4.3,36,0.00,,,0.00,WUHU216HW,2013-01-01 23:00:00,
2013-01-01 16:01:00,46.8,21.1,30.11,South,180,1.3,3.4,36,0.00,,,0.00,WUHU216HW,2013-01-01 23:01:00,
2013-01-01 16:02:00,46.8,21.1,30.11,South,180,0.7,2.7,36,0.00,,,0.00,WUHU216HW,2013-01-01 23:02:00,
2013-01-01 16:03:00,47.0,21.3,30.11,WSW,248,2.2,2.7,36,0.00,,,0.00,WUHU216HW,2013-01-01 23:03:00,
2013-01-01 16:04:00,47.0,21.3,30.11,SW,225,2.9,2.9,36,0.00,,,0.00,WUHU216HW,2013-01-01 23:04:00,
2013-01-01 16:05:00,47.0,21.3,30.11,South,180,3.4,3.4,36,0.00,,,0.00,WUHU216HW,2013-01-01 23:05:00,
2013-01-01 16:06:00,47.0,21.3,30.11,South,180,1.8,3.4,36,0.00,,,0.00,WUHU216HW,2013-01-01 23:06:00,
2013-01-01 16:07:00,47.0,21.3,30.11,SE,135,2.2,3.4,36,0.00,,,0.00,WUHU216HW,2013-01-01 23:07:00,
2013-01-01 16:08:00,47.0,21.3,30.11,South,180,2.7,3.4,36,0.00,,,0.00,WUHU216HW,2013-01-01 23:08:00,
2013-01-01 16:09:00,47.0,21.3,30.11,South,180,1.6,3.4,36,0.00,,,0.00,WUHU216HW,2013-01-01 23:09:00,
2013-01-01 16:10:00,47.0,21.9,30.11,South,180,1.3,3.4,37,0.00,,,0.00,WUHU216HW,2013-01-01 23:10:00,
2013-01-01 16:11:00,47.0,21.3,30.11,South,180,0.4,3.4,36,0.00,,,0.00,WUHU216HW,2013-01-01 23:11:00,
2013-01-01 16:12:00,47.0,21.3,30.10,SSE,158,0.4,3.4,36,0.00,,,0.00,WUHU216HW,2013-01-01 23:12:00,
2013-01-01 16:13:00,47.0,21.3,30.11,SSW,203,0.7,3.4,36,0.00,,,0.00,WUHU216HW,2013-01-01 23:13:00,
2013-01-01 16:14:00,47.0,21.9,30.11,SSW,203,0.7,3.4,37,0.00,,,0.00,WUHU216HW,2013-01-01 23:14:00,
2013-01-01 16:15:00,47.0,21.3,30.11,SW,225,0.7,3.4,36,0.00,,,0.00,WUHU216HW,2013-01-01 23:15:00,
2013-01-01 16:16:00,46.8,21.1,30.11,WSW,248,0.2,3.1,36,0.00,,,0.00,WUHU216HW,2013-01-01 23:16:00,
2013-01-01 16:17:00,47.0,21.9,30.11,West,270,0.4,3.1,37,0.00,,,0.00,WUHU216HW,2013-01-01 23:17:00,
2013-01-01 16:18:00,47.0,21.9,30.10,West,270,0.0,2.9,37,0.00,,,0.00,WUHU216HW,2013-01-01 23:18:00,
2013-01-01 16:19:00,46.8,21.7,30.10,West,270,0.0,2.9,37,0.00,,,0.00,WUHU216HW,2013-01-01 23:19:00,
2013-01-01 16:20:00,46.8,21.7,30.10,West,270,0.0,1.8,37,0.00,,,0.00,WUHU216HW,2013-01-01 23:20:00,
2013-01-01 16:21:00,46.8,21.1,30.10,West,270,0.0,1.8,36,0.00,,,0.00,WUHU216HW,2013-01-01 23:21:00,
2013-01-01 16:22:00,46.8,21.7,30.10,NW,315,0.0,1.8,37,0.00,,,0.00,WUHU216HW,2013-01-01 23:22:00,
2013-01-01 16:23:00,46.8,21.1,30.10,NW,315,0.0,1.8,36,0.00,,,0.00,WUHU216HW,2013-01-01 23:23:00,
2013-01-01 16:24:00,46.8,21.1,30.10,NE,45,0.0,1.1,36,0.00,,,0.00,WUHU216HW,2013-01-01 23:24:00,
2013-01-01 16:25:00,46.8,21.7,30.10,NE,45,0.0,1.1,37,0.00,,,0.00,WUHU216HW,2013-01-01 23:25:00,
2013-01-01 16:26:00,46.8,21.1,30.10,NE,45,0.0,0.4,36,0.00,,,0.00,WUHU216HW,2013-01-01 23:26:00,
2013-01-01 16:27:00,46.8,21.7,30.10,NE,45,0.0,0.4,37,0.00,,,0.00,WUHU216HW,2013-01-01 23:27:00,
2013-01-01 16:28:00,46.8,21.7,30.10,NE,45,0.0,0.2,37,0.00,,,0.00,WUHU216HW,2013-01-01 23:28:00,
2013-01-01 16:29:00,46.8,21.1,30.10,NE,45,0.0,0.2,36,0.00,,,0.00,WUHU216HW,2013-01-01 23:29:00,
2013-01-01 16:30:00,46.8,21.1,30.10,NE,45,0.0,0.2,36,0.00,,,0.00,WUHU216HW,2013-01-01 23:30:00,
2013-01-01 16:31:00,46.8,21.1,30.10,NE,45,0.0,0.2,36,0.00,,,0.00,WUHU216HW,2013-01-01 23:31:00,
2013-01-01 16:32:00,46.8,21.1,30.10,NNE,23,0.0,0.2,36,0.00,,,0.00,WUHU216HW,2013-01-01 23:32:00,
2013-01-01 16:33:00,46.8,21.1,30.10,North,0,0.2,0.2,36,0.00,,,0.00,WUHU216HW,2013-01-01 23:33:00,
2013-01-01 16:34:00,46.6,20.9,30.10,North,0,0.2,0.4,36,0.00,,,0.00,WUHU216HW,2013-01-01 23:34:00,
2013-01-01 16:35:00,46.8,21.1,30.10,North,0,0.0,0.4,36,0.00,,,0.00,WUHU216HW,2013-01-01 23:35:00,
2013-01-01 16:36:00,46.6,20.9,30.10,North,0,0.0,0.4,36,0.00,,,0.00,WUHU216HW,2013-01-01 23:36:00,
2013-01-01 16:37:00,46.6,21.6,30.10,North,0,0.0,0.4,37,0.00,,,0.00,WUHU216HW,2013-01-01 23:37:00,
2013-01-01 16:38:00,46.4,20.7,30.10,NNE,23,0.7,0.7,36,0.00,,,0.00,WUHU216HW,2013-01-01 23:38:00,
2013-01-01 16:39:00,46.4,21.4,30.10,NNE,23,0.4,0.7,37,0.00,,,0.00,WUHU216HW,2013-01-01 23:39:00,
2013-01-01 16:40:00,46.4,21.4,30.10,NE,45,0.4,0.7,37,0.00,,,0.00,WUHU216HW,2013-01-01 23:40:00,
2013-01-01 16:41:00,46.4,21.4,30.10,ENE,68,0.2,0.7,37,0.00,,,0.00,WUHU216HW,2013-01-01 23:41:00,
2013-01-01 16:42:00,46.3,21.2,30.10,ENE,68,0.0,0.7,37,0.00,,,0.00,WUHU216HW,2013-01-01 23:42:00,
2013-01-01 16:43:00,46.3,21.2,30.10,ENE,68,0.0,0.7,37,0.00,,,0.00,WUHU216HW,2013-01-01 23:43:00,
2013-01-01 16:44:00,46.1,21.1,30.10,ENE,68,0.0,0.7,37,0.00,,,0.00,WUHU216HW,2013-01-01 23:44:00,
2013-01-01 16:45:00,46.1,21.1,30.10,SSE,158,0.7,1.1,37,0.00,,,0.00,WUHU216HW,2013-01-01 23:45:00,
2013-01-01 16:46:00,46.1,21.1,30.10,SSE,158,0.4,1.1,37,0.00,,,0.00,WUHU216HW,2013-01-01 23:46:00,
2013-01-01 16:47:00,46.1,21.1,30.10,SSE,158,1.6,1.8,37,0.00,,,0.00,WUHU216HW,2013-01-01 23:47:00,
2013-01-01 16:48:00,45.9,20.9,30.10,SSW,203,0.7,1.8,37,0.00,,,0.00,WUHU216HW,2013-01-01 23:48:00,
2013-01-01 16:49:00,45.9,20.9,30.10,SSW,203,0.7,1.8,37,0.00,,,0.00,WUHU216HW,2013-01-01 23:49:00,
2013-01-01 16:50:00,45.7,20.8,30.10,SSE,158,0.7,1.8,37,0.00,,,0.00,WUHU216HW,2013-01-01 23:50:00,
2013-01-01 16:51:00,45.7,20.8,30.10,SSE,158,0.4,1.8,37,0.00,,,0.00,WUHU216HW,2013-01-01 23:51:00,
2013-01-01 16:52:00,45.7,20.8,30.10,SSE,158,0.7,1.8,37,0.00,,,0.00,WUHU216HW,2013-01-01 23:52:00,
2013-01-01 16:53:00,45.7,20.8,30.10,SSE,158,0.4,1.8,37,0.00,,,0.00,WUHU216HW,2013-01-01 23:53:00,
2013-01-01 16:54:00,45.7,20.8,30.09,SSE,158,0.0,1.8,37,0.00,,,0.00,WUHU216HW,2013-01-01 23:54:00,
2013-01-01 16:55:00,45.7,20.8,30.09,SSE,158,0.0,1.8,37,0.00,,,0.00,WUHU216HW,2013-01-01 23:55:00,
2013-01-01 16:56:00,45.7,20.8,30.09,SSE,158,0.0,1.8,37,0.00,,,0.00,WUHU216HW,2013-01-01 23:56:00,
2013-01-01 16:57:00,45.5,20.6,30.09,SW,225,1.3,1.3,37,0.00,,,0.00,WUHU216HW,2013-01-01 23:57:00,
2013-01-01 16:58:00,45.5,20.6,30.09,SW,225,1.8,2.0,37,0.00,,,0.00,WUHU216HW,2013-01-01 23:58:00,
2013-01-01 16:59:00,45.5,20.6,30.09,SW,225,0.7,2.0,37,0.00,,,0.00,WUHU216HW,2013-01-01 23:59:00,
2013-01-01 17:00:00,45.4,20.4,30.09,WSW,248,1.1,2.0,37,0.00,,,0.00,WUHU216HW,2013-01-02 00:00:00,
2013-01-01 17:01:00,45.4,21.1,30.09,SSW,203,1.1,2.0,38,0.00,,,0.00,WUHU216HW,2013-01-02 00:01:00,
2013-01-01 17:02:00,45.2,20.3,30.09,SW,225,0.2,2.0,37,0.00,,,0.00,WUHU216HW,2013-01-02 00:02:00,
2013-01-01 17:03:00,45.0,20.8,30.09,SW,225,0.0,2.0,38,0.00,,,0.00,WUHU216HW,2013-01-02 00:03:00,
2013-01-01 17:04:00,45.0,20.8,30.09,SW,225,0.4,2.0,38,0.00,,,0.00,WUHU216HW,2013-01-02 00:04:00,
2013-01-01 17:05:00,45.0,20.8,30.09,SW,225,0.9,2.0,38,0.00,,,0.00,WUHU216HW,2013-01-02 00:05:00,
2013-01-01 17:06:00,44.8,20.6,30.09,SW,225,0.9,2.0,38,0.00,,,0.00,WUHU216HW,2013-01-02 00:06:00,
2013-01-01 17:07:00,44.8,20.6,30.09,SW,225,1.1,2.0,38,0.00,,,0.00,WUHU216HW,2013-01-02 00:07:00,
2013-01-01 17:08:00,44.6,20.4,30.09,SSW,203,1.1,1.8,38,0.00,,,0.00,WUHU216HW,2013-01-02 00:08:00,
2013-01-01 17:09:00,44.6,20.4,30.10,SSW,203,1.1,1.6,38,0.00,,,0.00,WUHU216HW,2013-01-02 00:09:00,
2013-01-01 17:10:00,44.5,20.3,30.10,SSW,203,1.3,1.8,38,0.00,,,0.00,WUHU216HW,2013-01-02 00:10:00,
2013-01-01 17:11:00,44.5,20.3,30.10,SSW,203,1.6,1.8,38,0.00,,,0.00,WUHU216HW,2013-01-02 00:11:00,
2013-01-01 17:12:00,44.3,20.2,30.10,SSW,203,1.1,1.8,38,0.00,,,0.00,WUHU216HW,2013-01-02 00:12:00,
2013-01-01 17:13:00,44.3,20.2,30.10,SSW,203,1.1,1.8,38,0.00,,,0.00,WUHU216HW,2013-01-02 00:13:00,
2013-01-01 17:14:00,44.3,20.2,30.10,South,180,1.1,1.8,38,0.00,,,0.00,WUHU216HW,2013-01-02 00:14:00,
2013-01-01 17:15:00,44.3,20.2,30.10,SSW,203,2.0,2.0,38,0.00,,,0.00,WUHU216HW,2013-01-02 00:15:00,
2013-01-01 17:16:00,44.3,20.2,30.11,SSW,203,1.3,2.0,38,0.00,,,0.00,WUHU216HW,2013-01-02 00:16:00,
2013-01-01 17:17:00,44.1,20.0,30.10,SSW,203,1.1,2.0,38,0.00,,,0.00,WUHU216HW,2013-01-02 00:17:00,
2013-01-01 17:18:00,43.9,19.8,30.11,SSW,203,1.6,2.0,38,0.00,,,0.00,WUHU216HW,2013-01-02 00:18:00,
2013-01-01 17:19:00,43.9,19.8,30.11,South,180,0.4,2.0,38,0.00,,,0.00,WUHU216HW,2013-01-02 00:19:00,
2013-01-01 17:20:00,43.9,19.8,30.11,SSW,203,1.1,2.0,38,0.00,,,0.00,WUHU216HW,2013-01-02 00:20:00,
2013-01-01 17:21:00,43.7,19.6,30.11,SSW,203,0.9,2.0,38,0.00,,,0.00,WUHU216HW,2013-01-02 00:21:00,
2013-01-01 17:22:00,43.7,19.6,30.11,South,180,1.3,2.0,38,0.00,,,0.00,WUHU216HW,2013-01-02 00:22:00,
2013-01-01 17:23:00,43.6,20.2,30.10,SSW,203,1.6,2.0,39,0.00,,,0.00,WUHU216HW,2013-01-02 00:23:00,
2013-01-01 17:24:00,43.6,20.2,30.10,SSW,203,1.6,2.0,39,0.00,,,0.00,WUHU216HW,2013-01-02 00:24:00,
2013-01-01 17:25:00,43.6,20.2,30.10,SSW,203,1.1,2.0,39,0.00,,,0.00,WUHU216HW,2013-01-02 00:25:00,
2013-01-01 17:26:00,43.6,20.2,30.10,SSW,203,1.6,2.0,39,0.00,,,0.00,WUHU216HW,2013-01-02 00:26:00,
2013-01-01 17:27:00,43.4,20.0,30.11,SSW,203,1.1,2.0,39,0.00,,,0.00,WUHU216HW,2013-01-02 00:27:00,
2013-01-01 17:28:00,43.4,20.0,30.11,SSW,203,1.1,2.0,39,0.00,,,0.00,WUHU216HW,2013-01-02 00:28:00,
2013-01-01 17:29:00,43.2,19.8,30.11,SSW,203,1.1,2.0,39,0.00,,,0.00,WUHU216HW,2013-01-02 00:29:00,
2013-01-01 17:30:00,43.2,19.8,30.11,South,180,0.4,2.0,39,0.00,,,0.00,WUHU216HW,2013-01-02 00:30:00,
2013-01-01 17:31:00,43.0,19.6,30.10,SSE,158,1.6,2.0,39,0.00,,,0.00,WUHU216HW,2013-01-02 00:31:00,
2013-01-01 17:32:00,43.0,19.6,30.10,South,180,0.9,2.0,39,0.00,,,0.00,WUHU216HW,2013-01-02 00:32:00,
2013-01-01 17:33:00,43.0,19.6,30.10,South,180,0.4,1.6,39,0.00,,,0.00,WUHU216HW,2013-01-02 00:33:00,
2013-01-01 17:34:00,42.8,19.5,30.11,South,180,0.9,1.6,39,0.00,,,0.00,WUHU216HW,2013-01-02 00:34:00,
2013-01-01 17:35:00,42.8,19.5,30.10,South,180,0.7,1.6,39,0.00,,,0.00,WUHU216HW,2013-01-02 00:35:00,
2013-01-01 17:36:00,42.8,19.5,30.10,South,180,1.1,1.6,39,0.00,,,0.00,WUHU216HW,2013-01-02 00:36:00,
2013-01-01 17:37:00,42.8,19.5,30.10,South,180,0.7,1.6,39,0.00,,,0.00,WUHU216HW,2013-01-02 00:37:00,
2013-01-01 17:38:00,42.7,19.4,30.10,South,180,0.7,1.6,39,0.00,,,0.00,WUHU216HW,2013-01-02 00:38:00,
2013-01-01 17:39:00,42.7,19.4,30.10,South,180,0.4,1.6,39,0.00,,,0.00,WUHU216HW,2013-01-02 00:39:00,
2013-01-01 17:40:00,42.5,19.2,30.10,South,180,0.4,1.6,39,0.00,,,0.00,WUHU216HW,2013-01-02 00:40:00,
2013-01-01 17:41:00,42.5,19.2,30.10,SSW,203,0.9,1.3,39,0.00,,,0.00,WUHU216HW,2013-01-02 00:41:00,
2013-01-01 17:42:00,42.5,19.2,30.10,South,180,0.4,1.3,39,0.00,,,0.00,WUHU216HW,2013-01-02 00:42:00,
2013-01-01 17:43:00,42.3,19.0,30.10,South,180,1.8,1.8,39,0.00,,,0.00,WUHU216HW,2013-01-02 00:43:00,
2013-01-01 17:44:00,42.3,19.0,30.10,South,180,1.1,1.8,39,0.00,,,0.00,WUHU216HW,2013-01-02 00:44:00,
2013-01-01 17:45:00,42.1,18.8,30.10,SSE,158,1.1,1.8,39,0.00,,,0.00,WUHU216HW,2013-01-02 00:45:00,
2013-01-01 17:46:00,42.1,18.8,30.10,SSE,158,1.1,1.8,39,0.00,,,0.00,WUHU216HW,2013-01-02 00:46:00,
2013-01-01 17:47:00,42.1,18.8,30.10,SSE,158,0.9,1.8,39,0.00,,,0.00,WUHU216HW,2013-01-02 00:47:00,
2013-01-01 17:48:00,42.1,18.8,30.10,SSE,158,0.7,1.8,39,0.00,,,0.00,WUHU216HW,2013-01-02 00:48:00,
2013-01-01 17:49:00,42.1,19.5,30.10,SSE,158,0.4,1.8,40,0.00,,,0.00,WUHU216HW,2013-01-02 00:49:00,
2013-01-01 17:50:00,41.9,19.4,30.10,SSE,158,0.4,1.8,40,0.00,,,0.00,WUHU216HW,2013-01-02 00:50:00,
2013-01-01 17:51:00,41.8,19.2,30.10,SSE,158,0.4,1.8,40,0.00,,,0.00,WUHU216HW,2013-01-02 00:51:00,
2013-01-01 17:52:00,41.8,18.6,30.10,SSE,158,0.4,1.8,39,0.00,,,0.00,WUHU216HW,2013-01-02 00:52:00,
2013-01-01 17:53:00,41.8,19.2,30.10,South,180,1.1,1.8,40,0.00,,,0.00,WUHU216HW,2013-01-02 00:53:00,
2013-01-01 17:54:00,41.8,19.2,30.10,South,180,0.7,1.8,40,0.00,,,0.00,WUHU216HW,2013-01-02 00:54:00,
2013-01-01 17:55:00,41.6,19.0,30.10,SSE,158,0.7,1.8,40,0.00,,,0.00,WUHU216HW,2013-01-02 00:55:00,
2013-01-01 17:56:00,41.4,18.9,30.10,South,180,0.9,1.3,40,0.00,,,0.00,WUHU216HW,2013-01-02 00:56:00,
2013-01-01 17:57:00,41.4,18.9,30.10,SSE,158,0.9,1.1,40,0.00,,,0.00,WUHU216HW,2013-01-02 00:57:00,
2013-01-01 17:58:00,41.4,18.9,30.10,SSE,158,1.1,1.1,40,0.00,,,0.00,WUHU216HW,2013-01-02 00:58:00,
2013-01-01 17:59:00,41.4,18.9,30.10,SSE,158,1.1,1.6,40,0.00,,,0.00,WUHU216HW,2013-01-02 00:59:00,
2013-01-01 18:00:00,41.2,18.7,30.10,SSE,158,0.9,1.6,40,0.00,,,0.00,WUHU216HW,2013-01-02 01:00:00,
2013-01-01 18:01:00,41.2,18.7,30.10,SSE,158,1.1,1.6,40,0.00,,,0.00,WUHU216HW,2013-01-02 01:01:00,
2013-01-01 18:02:00,41.2,18.7,30.10,SSE,158,0.9,1.6,40,0.00,,,0.00,WUHU216HW,2013-01-02 01:02:00,
2013-01-01 18:03:00,41.0,18.5,30.10,SSE,158,0.7,1.6,40,0.00,,,0.00,WUHU216HW,2013-01-02 01:03:00,
2013-01-01 18:04:00,41.0,18.5,30.10,SE,135,0.9,1.6,40,0.00,,,0.00,WUHU216HW,2013-01-02 01:04:00,
2013-01-01 18:05:00,40.9,18.4,30.10,SE,135,0.4,1.6,40,0.00,,,0.00,WUHU216HW,2013-01-02 01:05:00,
2013-01-01 18:06:00,40.9,18.4,30.10,SE,135,0.4,1.6,40,0.00,,,0.00,WUHU216HW,2013-01-02 01:06:00,
2013-01-01 18:07:00,40.7,18.2,30.10,SSE,158,0.7,1.6,40,0.00,,,0.00,WUHU216HW,2013-01-02 01:07:00,
2013-01-01 18:08:00,40.9,18.4,30.11,SSE,158,0.7,1.6,40,0.00,,,0.00,WUHU216HW,2013-01-02 01:08:00,
2013-01-01 18:09:00,40.7,18.2,30.10,SSE,158,0.4,1.1,40,0.00,,,0.00,WUHU216HW,2013-01-02 01:09:00,
2013-01-01 18:10:00,40.7,18.2,30.10,SSE,158,0.4,1.1,40,0.00,,,0.00,WUHU216HW,2013-01-02 01:10:00,
2013-01-01 18:11:00,40.7,18.2,30.10,SSE,158,0.0,1.1,40,0.00,,,0.00,WUHU216HW,2013-01-02 01:11:00,
2013-01-01 18:12:00,40.5,18.1,30.10,SSE,158,0.2,1.1,40,0.00,,,0.00,WUHU216HW,2013-01-02 01:12:00,
2013-01-01 18:13:00,40.5,18.1,30.11,SSE,158,0.0,1.1,40,0.00,,,0.00,WUHU216HW,2013-01-02 01:13:00,
2013-01-01 18:14:00,40.5,18.1,30.11,SSE,158,0.0,1.1,40,0.00,,,0.00,WUHU216HW,2013-01-02 01:14:00,
2013-01-01 18:15:00,40.3,17.9,30.11,SSE,158,0.0,1.1,40,0.00,,,0.00,WUHU216HW,2013-01-02 01:15:00,
2013-01-01 18:16:00,40.3,18.5,30.11,SSE,158,0.0,1.1,41,0.00,,,0.00,WUHU216HW,2013-01-02 01:16:00,
2013-01-01 18:17:00,40.3,18.5,30.11,SSE,158,0.0,1.1,41,0.00,,,0.00,WUHU216HW,2013-01-02 01:17:00,
2013-01-01 18:18:00,40.1,18.3,30.11,SSE,158,0.0,0.9,41,0.00,,,0.00,WUHU216HW,2013-01-02 01:18:00,
2013-01-01 18:19:00,40.1,18.3,30.11,SSE,158,0.0,0.4,41,0.00,,,0.00,WUHU216HW,2013-01-02 01:19:00,
2013-01-01 18:20:00,40.1,18.3,30.11,SSE,158,0.0,0.4,41,0.00,,,0.00,WUHU216HW,2013-01-02 01:20:00,
2013-01-01 18:21:00,40.0,18.1,30.11,SSE,158,0.0,0.2,41,0.00,,,0.00,WUHU216HW,2013-01-02 01:21:00,
2013-01-01 18:22:00,40.0,18.1,30.11,SSE,158,0.0,0.2,41,0.00,,,0.00,WUHU216HW,2013-01-02 01:22:00,
2013-01-01 18:23:00,40.0,18.1,30.11,SSE,158,0.0,0.0,41,0.00,,,0.00,WUHU216HW,2013-01-02 01:23:00,
2013-01-01 18:24:00,40.0,18.1,30.11,SSE,158,0.0,0.0,41,0.00,,,0.00,WUHU216HW,2013-01-02 01:24:00,
2013-01-01 18:25:00,39.8,17.9,30.11,SSE,158,0.2,0.2,41,0.00,,,0.00,WUHU216HW,2013-01-02 01:25:00,
2013-01-01 18:26:00,39.8,17.9,30.11,SSE,158,0.4,0.4,41,0.00,,,0.00,WUHU216HW,2013-01-02 01:26:00,
2013-01-01 18:27:00,39.6,17.7,30.11,SSE,158,0.9,0.9,41,0.00,,,0.00,WUHU216HW,2013-01-02 01:27:00,
2013-01-01 18:28:00,39.6,17.7,30.11,SSE,158,0.4,0.9,41,0.00,,,0.00,WUHU216HW,2013-01-02 01:28:00,
2013-01-01 18:29:00,39.4,17.7,30.11,SSE,158,0.7,0.9,41,0.00,,,0.00,WUHU216HW,2013-01-02 01:29:00,
2013-01-01 18:30:00,39.2,17.5,30.11,South,180,0.9,0.9,41,0.00,,,0.00,WUHU216HW,2013-01-02 01:30:00,
2013-01-01 18:31:00,39.2,17.5,30.11,SSW,203,1.1,1.1,41,0.00,,,0.00,WUHU216HW,2013-01-02 01:31:00,
2013-01-01 18:32:00,39.2,17.5,30.11,SSW,203,1.1,1.1,41,0.00,,,0.00,WUHU216HW,2013-01-02 01:32:00,
2013-01-01 18:33:00,39.2,17.5,30.11,SSW,203,1.1,1.1,41,0.00,,,0.00,WUHU216HW,2013-01-02 01:33:00,
2013-01-01 18:34:00,39.2,18.0,30.11,SSW,203,1.1,1.1,42,0.00,,,0.00,WUHU216HW,2013-01-02 01:34:00,
2013-01-01 18:35:00,39.1,17.8,30.11,SSW,203,1.1,1.1,42,0.00,,,0.00,WUHU216HW,2013-01-02 01:35:00,
2013-01-01 18:36:00,39.1,17.8,30.11,SSW,203,1.1,1.1,42,0.00,,,0.00,WUHU216HW,2013-01-02 01:36:00,
2013-01-01 18:37:00,38.9,17.6,30.11,SSW,203,1.1,1.1,42,0.00,,,0.00,WUHU216HW,2013-01-02 01:37:00,
2013-01-01 18:38:00,38.9,17.6,30.11,SSW,203,0.9,1.1,42,0.00,,,0.00,WUHU216HW,2013-01-02 01:38:00,
2013-01-01 18:39:00,38.9,17.6,30.11,South,180,0.2,1.1,42,0.00,,,0.00,WUHU216HW,2013-01-02 01:39:00,
2013-01-01 18:40:00,38.9,17.6,30.11,SSW,203,0.0,1.1,42,0.00,,,0.00,WUHU216HW,2013-01-02 01:40:00,
2013-01-01 18:41:00,38.7,17.5,30.11,SSW,203,0.0,1.1,42,0.00,,,0.00,WUHU216HW,2013-01-02 01:41:00,
2013-01-01 18:42:00,38.7,17.5,30.11,SSW,203,0.0,1.1,42,0.00,,,0.00,WUHU216HW,2013-01-02 01:42:00,
2013-01-01 18:43:00,38.7,17.5,30.11,SSW,203,0.0,1.1,42,0.00,,,0.00,WUHU216HW,2013-01-02 01:43:00,
2013-01-01 18:44:00,38.7,17.5,30.11,SSW,203,0.0,1.1,42,0.00,,,0.00,WUHU216HW,2013-01-02 01:44:00,
2013-01-01 18:45:00,38.5,17.3,30.11,SSW,203,0.0,1.1,42,0.00,,,0.00,WUHU216HW,2013-01-02 01:45:00,
2013-01-01 18:46:00,38.5,17.3,30.11,SSW,203,0.0,1.1,42,0.00,,,0.00,WUHU216HW,2013-01-02 01:46:00,
2013-01-01 18:47:00,38.5,17.3,30.11,SSW,203,0.4,0.9,42,0.00,,,0.00,WUHU216HW,2013-01-02 01:47:00,
2013-01-01 18:48:00,38.5,17.3,30.11,SW,225,0.4,0.9,42,0.00,,,0.00,WUHU216HW,2013-01-02 01:48:00,
2013-01-01 18:49:00,38.5,17.3,30.11,SW,225,0.4,0.7,42,0.00,,,0.00,WUHU216HW,2013-01-02 01:49:00,
2013-01-01 18:50:00,38.3,17.2,30.11,SW,225,0.4,0.7,42,0.00,,,0.00,WUHU216HW,2013-01-02 01:50:00,
2013-01-01 18:51:00,38.3,17.2,30.11,SW,225,0.7,0.9,42,0.00,,,0.00,WUHU216HW,2013-01-02 01:51:00,
2013-01-01 18:52:00,38.2,17.0,30.11,SW,225,1.1,1.1,42,0.00,,,0.00,WUHU216HW,2013-01-02 01:52:00,
2013-01-01 18:53:00,38.2,17.0,30.11,SW,225,1.1,1.1,42,0.00,,,0.00,WUHU216HW,2013-01-02 01:53:00,
2013-01-01 18:54:00,38.0,16.8,30.12,SW,225,0.7,1.1,42,0.00,,,0.00,WUHU216HW,2013-01-02 01:54:00,
2013-01-01 18:55:00,37.8,16.7,30.12,SW,225,0.7,1.1,42,0.00,,,0.00,WUHU216HW,2013-01-02 01:55:00,
2013-01-01 18:56:00,37.8,16.7,30.13,SW,225,0.9,1.1,42,0.00,,,0.00,WUHU216HW,2013-01-02 01:56:00,
2013-01-01 18:57:00,37.8,16.7,30.12,SW,225,1.1,1.1,42,0.00,,,0.00,WUHU216HW,2013-01-02 01:57:00,
2013-01-01 18:58:00,37.6,17.0,30.12,SW,225,0.7,1.1,43,0.00,,,0.00,WUHU216HW,2013-01-02 01:58:00,
2013-01-01 18:59:00,37.4,16.8,30.12,SW,225,0.7,1.1,43,0.00,,,0.00,WUHU216HW,2013-01-02 01:59:00,
2013-01-01 19:00:00,37.4,16.8,30.12,SW,225,0.7,1.1,43,0.00,,,0.00,WUHU216HW,2013-01-02 02:00:00,
2013-01-01 19:01:00,37.3,16.8,30.12,SW,225,0.4,1.1,43,0.00,,,0.00,WUHU216HW,2013-01-02 02:01:00,
2013-01-01 19:02:00,37.3,16.8,30.12,SW,225,0.4,1.1,43,0.00,,,0.00,WUHU216HW,2013-01-02 02:02:00,
2013-01-01 19:03:00,37.3,16.8,30.12,SW,225,0.4,1.1,43,0.00,,,0.00,WUHU216HW,2013-01-02 02:03:00,
2013-01-01 19:04:00,37.1,16.6,30.12,SW,225,0.0,1.1,43,0.00,,,0.00,WUHU216HW,2013-01-02 02:04:00,
2013-01-01 19:05:00,37.1,16.6,30.12,SW,225,0.0,1.1,43,0.00,,,0.00,WUHU216HW,2013-01-02 02:05:00,
2013-01-01 19:06:00,37.1,16.6,30.12,SW,225,0.0,1.1,43,0.00,,,0.00,WUHU216HW,2013-01-02 02:06:00,
2013-01-01 19:07:00,37.1,16.6,30.12,SSE,158,0.0,1.1,43,0.00,,,0.00,WUHU216HW,2013-01-02 02:07:00,
2013-01-01 19:08:00,37.1,16.6,30.12,SSE,158,0.0,0.9,43,0.00,,,0.00,WUHU216HW,2013-01-02 02:08:00,
2013-01-01 19:09:00,36.9,16.4,30.12,SSE,158,0.0,0.7,43,0.00,,,0.00,WUHU216HW,2013-01-02 02:09:00,
2013-01-01 19:10:00,36.9,16.4,30.13,SSE,158,0.0,0.7,43,0.00,,,0.00,WUHU216HW,2013-01-02 02:10:00,
2013-01-01 19:11:00,36.9,16.4,30.13,SSE,158,0.0,0.7,43,0.00,,,0.00,WUHU216HW,2013-01-02 02:11:00,
2013-01-01 19:12:00,36.9,16.9,30.13,SSE,158,0.0,0.7,44,0.00,,,0.00,WUHU216HW,2013-01-02 02:12:00,
2013-01-01 19:13:00,36.9,16.9,30.13,SSE,158,0.0,0.2,44,0.00,,,0.00,WUHU216HW,2013-01-02 02:13:00,
2013-01-01 19:14:00,36.7,16.7,30.13,SSE,158,0.0,0.0,44,0.00,,,0.00,WUHU216HW,2013-01-02 02:14:00,
2013-01-01 19:15:00,36.7,16.7,30.13,SSE,158,0.0,0.0,44,0.00,,,0.00,WUHU216HW,2013-01-02 02:15:00,
2013-01-01 19:16:00,36.7,16.7,30.13,SSE,158,0.0,0.0,44,0.00,,,0.00,WUHU216HW,2013-01-02 02:16:00,
2013-01-01 19:17:00,36.7,16.7,30.13,SSE,158,0.0,0.0,44,0.00,,,0.00,WUHU216HW,2013-01-02 02:17:00,
2013-01-01 19:18:00,36.7,16.7,30.13,SSE,158,0.0,0.0,44,0.00,,,0.00,WUHU216HW,2013-01-02 02:18:00,
2013-01-01 19:19:00,36.5,16.6,30.13,SSE,158,0.0,0.0,44,0.00,,,0.00,WUHU216HW,2013-01-02 02:19:00,
2013-01-01 19:20:00,36.5,16.6,30.13,SSE,158,0.0,0.0,44,0.00,,,0.00,WUHU216HW,2013-01-02 02:20:00,
2013-01-01 19:21:00,36.5,16.6,30.13,SSE,158,0.0,0.0,44,0.00,,,0.00,WUHU216HW,2013-01-02 02:21:00,
2013-01-01 19:22:00,36.5,16.6,30.12,SSE,158,0.0,0.0,44,0.00,,,0.00,WUHU216HW,2013-01-02 02:22:00,
2013-01-01 19:23:00,36.4,16.4,30.13,SSE,158,0.0,0.0,44,0.00,,,0.00,WUHU216HW,2013-01-02 02:23:00,
2013-01-01 19:24:00,36.4,16.4,30.13,SSE,158,0.0,0.0,44,0.00,,,0.00,WUHU216HW,2013-01-02 02:24:00,
2013-01-01 19:25:00,36.4,16.4,30.13,SSE,158,0.0,0.0,44,0.00,,,0.00,WUHU216HW,2013-01-02 02:25:00,
2013-01-01 19:26:00,36.4,16.4,30.13,SSE,158,0.0,0.0,44,0.00,,,0.00,WUHU216HW,2013-01-02 02:26:00,
2013-01-01 19:27:00,36.4,16.4,30.12,SSE,158,0.2,0.2,44,0.00,,,0.00,WUHU216HW,2013-01-02 02:27:00,
2013-01-01 19:28:00,36.4,16.4,30.12,SSE,158,0.2,0.2,44,0.00,,,0.00,WUHU216HW,2013-01-02 02:28:00,
2013-01-01 19:29:00,36.4,16.9,30.12,SSE,158,0.2,0.2,45,0.00,,,0.00,WUHU216HW,2013-01-02 02:29:00,
2013-01-01 19:30:00,36.4,16.4,30.12,SE,135,0.4,0.4,44,0.00,,,0.00,WUHU216HW,2013-01-02 02:30:00,
2013-01-01 19:31:00,36.4,16.9,30.12,ENE,68,0.4,0.4,45,0.00,,,0.00,WUHU216HW,2013-01-02 02:31:00,
2013-01-01 19:32:00,36.2,16.7,30.12,ENE,68,0.2,0.4,45,0.00,,,0.00,WUHU216HW,2013-01-02 02:32:00,
2013-01-01 19:33:00,36.2,16.7,30.11,East,90,0.7,0.9,45,0.00,,,0.00,WUHU216HW,2013-01-02 02:33:00,
2013-01-01 19:34:00,36.0,16.7,30.11,ESE,113,0.4,1.1,45,0.00,,,0.00,WUHU216HW,2013-01-02 02:34:00,
2013-01-01 19:35:00,36.0,16.1,30.11,ESE,113,0.4,1.1,44,0.00,,,0.00,WUHU216HW,2013-01-02 02:35:00,
2013-01-01 19:36:00,36.0,16.1,30.11,ESE,113,0.4,1.1,44,0.00,,,0.00,WUHU216HW,2013-01-02 02:36:00,
2013-01-01 19:37:00,35.8,15.9,30.11,ESE,113,0.4,1.1,44,0.00,,,0.00,WUHU216HW,2013-01-02 02:37:00,
2013-01-01 19:38:00,35.6,15.8,30.11,ESE,113,0.4,1.1,44,0.00,,,0.00,WUHU216HW,2013-01-02 02:38:00,
2013-01-01 19:39:00,35.6,15.8,30.11,SE,135,0.4,1.1,44,0.00,,,0.00,WUHU216HW,2013-01-02 02:39:00,
2013-01-01 19:40:00,35.6,15.8,30.11,SE,135,1.1,1.1,44,0.00,,,0.00,WUHU216HW,2013-01-02 02:40:00,
2013-01-01 19:41:00,35.6,15.8,30.11,SE,135,1.3,1.3,44,0.00,,,0.00,WUHU216HW,2013-01-02 02:41:00,
2013-01-01 19:42:00,35.5,15.6,30.11,SE,135,1.3,1.3,44,0.00,,,0.00,WUHU216HW,2013-01-02 02:42:00,
2013-01-01 19:43:00,35.5,15.6,30.11,SE,135,1.1,1.3,44,0.00,,,0.00,WUHU216HW,2013-01-02 02:43:00,
2013-01-01 19:44:00,35.5,15.6,30.12,SE,135,0.7,1.3,44,0.00,,,0.00,WUHU216HW,2013-01-02 02:44:00,
2013-01-01 19:45:00,35.3,15.4,30.11,SE,135,0.7,1.3,44,0.00,,,0.00,WUHU216HW,2013-01-02 02:45:00,
2013-01-01 19:46:00,35.3,15.4,30.11,SE,135,0.2,1.3,44,0.00,,,0.00,WUHU216HW,2013-01-02 02:46:00,
2013-01-01 19:47:00,35.1,15.3,30.12,SE,135,0.0,1.3,44,0.00,,,0.00,WUHU216HW,2013-01-02 02:47:00,
2013-01-01 19:48:00,35.1,15.3,30.12,SE,135,0.0,1.3,44,0.00,,,0.00,WUHU216HW,2013-01-02 02:48:00,
2013-01-01 19:49:00,35.1,15.3,30.12,SE,135,0.0,1.3,44,0.00,,,0.00,WUHU216HW,2013-01-02 02:49:00,
2013-01-01 19:50:00,34.9,15.1,30.12,SE,135,0.0,1.3,44,0.00,,,0.00,WUHU216HW,2013-01-02 02:50:00,
2013-01-01 19:51:00,34.9,15.1,30.12,SE,135,0.0,1.3,44,0.00,,,0.00,WUHU216HW,2013-01-02 02:51:00,
2013-01-01 19:52:00,34.9,15.1,30.12,SE,135,0.0,1.3,44,0.00,,,0.00,WUHU216HW,2013-01-02 02:52:00,
2013-01-01 19:53:00,34.9,15.1,30.12,SE,135,0.0,1.1,44,0.00,,,0.00,WUHU216HW,2013-01-02 02:53:00,
2013-01-01 19:54:00,34.9,15.1,30.12,SE,135,0.0,0.7,44,0.00,,,0.00,WUHU216HW,2013-01-02 02:54:00,
2013-01-01 19:55:00,34.7,15.0,30.12,SE,135,0.0,0.4,44,0.00,,,0.00,WUHU216HW,2013-01-02 02:55:00,
2013-01-01 19:56:00,34.7,15.0,30.12,SE,135,0.0,0.4,44,0.00,,,0.00,WUHU216HW,2013-01-02 02:56:00,
2013-01-01 19:57:00,34.7,15.0,30.12,SE,135,0.0,0.0,44,0.00,,,0.00,WUHU216HW,2013-01-02 02:57:00,
2013-01-01 19:58:00,34.6,15.3,30.11,SE,135,0.0,0.0,45,0.00,,,0.00,WUHU216HW,2013-01-02 02:58:00,
2013-01-01 19:59:00,34.6,15.3,30.12,SE,135,0.0,0.0,45,0.00,,,0.00,WUHU216HW,2013-01-02 02:59:00,
2013-01-01 20:00:00,34.6,15.3,30.11,SE,135,0.0,0.0,45,0.00,,,0.00,WUHU216HW,2013-01-02 03:00:00,
2013-01-01 20:01:00,34.4,15.1,30.11,SE,135,0.0,0.0,45,0.00,,,0.00,WUHU216HW,2013-01-02 03:01:00,
2013-01-01 20:02:00,34.4,15.1,30.11,SE,135,0.0,0.0,45,0.00,,,0.00,WUHU216HW,2013-01-02 03:02:00,
2013-01-01 20:03:00,34.4,15.1,30.12,SE,135,0.0,0.0,45,0.00,,,0.00,WUHU216HW,2013-01-02 03:03:00,
2013-01-01 20:04:00,34.4,15.1,30.11,SE,135,0.0,0.0,45,0.00,,,0.00,WUHU216HW,2013-01-02 03:04:00,
2013-01-01 20:05:00,34.2,15.0,30.12,SE,135,0.0,0.0,45,0.00,,,0.00,WUHU216HW,2013-01-02 03:05:00,
2013-01-01 20:06:00,34.2,15.0,30.12,SE,135,0.0,0.0,45,0.00,,,0.00,WUHU216HW,2013-01-02 03:06:00,
2013-01-01 20:07:00,34.0,14.8,30.12,SE,135,0.0,0.0,45,0.00,,,0.00,WUHU216HW,2013-01-02 03:07:00,
2013-01-01 20:08:00,34.0,14.8,30.12,SE,135,0.0,0.0,45,0.00,,,0.00,WUHU216HW,2013-01-02 03:08:00,
2013-01-01 20:09:00,33.8,14.6,30.12,SE,135,0.0,0.0,45,0.00,,,0.00,WUHU216HW,2013-01-02 03:09:00,
2013-01-01 20:10:00,33.8,14.6,30.12,SE,135,0.2,0.2,45,0.00,,,0.00,WUHU216HW,2013-01-02 03:10:00,
2013-01-01 20:11:00,33.8,14.6,30.12,SSE,158,0.4,0.4,45,0.00,,,0.00,WUHU216HW,2013-01-02 03:11:00,
2013-01-01 20:12:00,33.7,14.4,30.12,SW,225,0.7,0.7,45,0.00,,,0.00,WUHU216HW,2013-01-02 03:12:00,
2013-01-01 20:13:00,33.5,14.2,30.12,WSW,248,1.1,1.1,45,0.00,,,0.00,WUHU216HW,2013-01-02 03:13:00,
2013-01-01 20:14:00,33.5,14.2,30.12,SW,225,1.3,1.3,45,0.00,,,0.00,WUHU216HW,2013-01-02 03:14:00,
2013-01-01 20:15:00,33.5,14.2,30.12,SW,225,1.1,1.3,45,0.00,,,0.00,WUHU216HW,2013-01-02 03:15:00,
2013-01-01 20:16:00,33.3,14.1,30.12,SW,225,1.3,1.3,45,0.00,,,0.00,WUHU216HW,2013-01-02 03:16:00,
2013-01-01 20:17:00,33.3,14.6,30.12,SW,225,1.1,1.3,46,0.00,,,0.00,WUHU216HW,2013-01-02 03:17:00,
2013-01-01 20:18:00,33.3,14.6,30.12,SW,225,1.1,1.3,46,0.00,,,0.00,WUHU216HW,2013-01-02 03:18:00,
2013-01-01 20:19:00,33.3,14.6,30.12,SW,225,1.3,1.3,46,0.00,,,0.00,WUHU216HW,2013-01-02 03:19:00,
2013-01-01 20:20:00,33.1,14.4,30.12,SW,225,0.9,1.3,46,0.00,,,0.00,WUHU216HW,2013-01-02 03:20:00,
2013-01-01 20:21:00,33.1,14.4,30.12,SW,225,0.9,1.3,46,0.00,,,0.00,WUHU216HW,2013-01-02 03:21:00,
2013-01-01 20:22:00,33.1,14.4,30.13,SW,225,1.3,1.3,46,0.00,,,0.00,WUHU216HW,2013-01-02 03:22:00,
2013-01-01 20:23:00,32.9,14.3,30.13,SW,225,1.3,1.3,46,0.00,,,0.00,WUHU216HW,2013-01-02 03:23:00,
2013-01-01 20:24:00,32.9,14.3,30.13,SW,225,1.1,1.3,46,0.00,,,0.00,WUHU216HW,2013-01-02 03:24:00,
2013-01-01 20:25:00,32.8,14.1,30.13,SW,225,0.9,1.3,46,0.00,,,0.00,WUHU216HW,2013-01-02 03:25:00,
2013-01-01 20:26:00,32.8,14.1,30.12,SW,225,0.9,1.3,46,0.00,,,0.00,WUHU216HW,2013-01-02 03:26:00,
2013-01-01 20:27:00,32.8,14.1,30.12,SW,225,0.7,1.3,46,0.00,,,0.00,WUHU216HW,2013-01-02 03:27:00,
2013-01-01 20:28:00,32.8,14.1,30.12,SW,225,0.4,1.3,46,0.00,,,0.00,WUHU216HW,2013-01-02 03:28:00,
2013-01-01 20:29:00,32.8,14.1,30.12,SW,225,0.9,1.3,46,0.00,,,0.00,WUHU216HW,2013-01-02 03:29:00,
2013-01-01 20:30:00,32.8,14.1,30.12,SW,225,0.9,1.3,46,0.00,,,0.00,WUHU216HW,2013-01-02 03:30:00,
2013-01-01 20:31:00,32.8,14.1,30.12,SW,225,0.9,1.3,46,0.00,,,0.00,WUHU216HW,2013-01-02 03:31:00,
2013-01-01 20:32:00,32.6,14.5,30.12,SW,225,0.7,1.3,47,0.00,,,0.00,WUHU216HW,2013-01-02 03:32:00,
2013-01-01 20:33:00,32.6,14.5,30.12,SW,225,0.2,1.3,47,0.00,,,0.00,WUHU216HW,2013-01-02 03:33:00,
2013-01-01 20:34:00,32.6,14.5,30.12,SW,225,0.2,1.1,47,0.00,,,0.00,WUHU216HW,2013-01-02 03:34:00,
2013-01-01 20:35:00,32.6,14.5,30.12,SW,225,0.0,1.1,47,0.00,,,0.00,WUHU216HW,2013-01-02 03:35:00,
2013-01-01 20:36:00,32.6,14.5,30.11,SE,135,0.4,0.9,47,0.00,,,0.00,WUHU216HW,2013-01-02 03:36:00,
2013-01-01 20:37:00,32.6,14.5,30.12,SE,135,0.4,0.9,47,0.00,,,0.00,WUHU216HW,2013-01-02 03:37:00,
2013-01-01 20:38:00,32.6,14.5,30.12,SE,135,0.4,0.9,47,0.00,,,0.00,WUHU216HW,2013-01-02 03:38:00,
2013-01-01 20:39:00,32.6,14.5,30.12,SE,135,0.2,0.9,47,0.00,,,0.00,WUHU216HW,2013-01-02 03:39:00,
2013-01-01 20:40:00,32.6,14.5,30.12,SE,135,0.4,0.9,47,0.00,,,0.00,WUHU216HW,2013-01-02 03:40:00,
2013-01-01 20:41:00,32.6,14.5,30.12,SE,135,0.0,0.9,47,0.00,,,0.00,WUHU216HW,2013-01-02 03:41:00,
2013-01-01 20:42:00,32.4,14.3,30.12,SE,135,0.0,0.9,47,0.00,,,0.00,WUHU216HW,2013-01-02 03:42:00,
2013-01-01 20:43:00,32.4,14.3,30.12,SE,135,0.4,0.9,47,0.00,,,0.00,WUHU216HW,2013-01-02 03:43:00,
2013-01-01 20:44:00,32.4,14.3,30.12,SE,135,0.4,0.9,47,0.00,,,0.00,WUHU216HW,2013-01-02 03:44:00,
2013-01-01 20:45:00,32.4,14.3,30.12,SE,135,0.4,0.9,47,0.00,,,0.00,WUHU216HW,2013-01-02 03:45:00,
2013-01-01 20:46:00,32.4,14.3,30.12,SE,135,0.4,0.9,47,0.00,,,0.00,WUHU216HW,2013-01-02 03:46:00,
2013-01-01 20:47:00,32.2,14.1,30.12,SSE,158,0.4,0.7,47,0.00,,,0.00,WUHU216HW,2013-01-02 03:47:00,
2013-01-01 20:48:00,32.2,14.1,30.12,SW,225,0.9,0.9,47,0.00,,,0.00,WUHU216HW,2013-01-02 03:48:00,
2013-01-01 20:49:00,32.2,14.7,30.13,SW,225,1.1,1.1,48,0.00,,,0.00,WUHU216HW,2013-01-02 03:49:00,
2013-01-01 20:50:00,32.2,14.7,30.12,SW,225,0.7,1.1,48,0.00,,,0.00,WUHU216HW,2013-01-02 03:50:00,
2013-01-01 20:51:00,32.2,14.7,30.13,SW,225,0.9,1.1,48,0.00,,,0.00,WUHU216HW,2013-01-02 03:51:00,
2013-01-01 20:52:00,32.0,14.5,30.13,SW,225,0.7,1.1,48,0.00,,,0.00,WUHU216HW,2013-01-02 03:52:00,
2013-01-01 21:00:00,32.0,14.5,30.12,SW,225,0.0,1.1,48,0.00,,,0.00,WUHU216HW,2013-01-02 04:00:00,
2013-01-01 21:59:00,30.6,14.6,30.13,NNE,23,0.0,0.0,51,0.00,,,0.00,WUHU216HW,2013-01-02 04:59:00,
2013-01-01 22:00:00,30.6,14.6,30.13,NNE,23,0.0,0.0,51,0.00,,,0.00,WUHU216HW,2013-01-02 05:00:00,
2013-01-01 22:01:00,30.6,14.6,30.13,NNE,23,0.0,0.0,51,0.00,,,0.00,WUHU216HW,2013-01-02 05:01:00,
2013-01-01 22:02:00,30.6,14.6,30.13,NNE,23,0.0,0.0,51,0.00,,,0.00,WUHU216HW,2013-01-02 05:02:00,
2013-01-01 22:03:00,30.4,14.4,30.13,NNE,23,0.0,0.0,51,0.00,,,0.00,WUHU216HW,2013-01-02 05:03:00,
2013-01-01 22:04:00,30.4,14.4,30.12,NNE,23,0.0,0.0,51,0.00,,,0.00,WUHU216HW,2013-01-02 05:04:00,
2013-01-01 22:05:00,30.4,14.4,30.13,NE,45,0.4,0.7,51,0.00,,,0.00,WUHU216HW,2013-01-02 05:05:00,
2013-01-01 22:06:00,30.4,14.4,30.13,NE,45,0.2,0.7,51,0.00,,,0.00,WUHU216HW,2013-01-02 05:06:00,
2013-01-01 22:07:00,30.2,14.3,30.13,NE,45,0.4,0.7,51,0.00,,,0.00,WUHU216HW,2013-01-02 05:07:00,
2013-01-01 22:08:00,30.2,14.3,30.13,NE,45,0.9,0.9,51,0.00,,,0.00,WUHU216HW,2013-01-02 05:08:00,
2013-01-01 22:09:00,30.2,14.3,30.13,North,0,1.1,1.1,51,0.00,,,0.00,WUHU216HW,2013-01-02 05:09:00,
2013-01-01 22:10:00,30.2,14.7,30.13,North,0,1.8,2.0,52,0.00,,,0.00,WUHU216HW,2013-01-02 05:10:00,
2013-01-01 22:11:00,30.2,14.7,30.13,NNW,338,3.1,4.3,52,0.00,,,0.00,WUHU216HW,2013-01-02 05:11:00,
2013-01-01 22:12:00,30.1,14.5,30.13,North,0,1.6,4.3,52,0.00,,,0.00,WUHU216HW,2013-01-02 05:12:00,
2013-01-01 22:13:00,30.1,14.5,30.13,NNW,338,0.0,4.3,52,0.00,,,0.00,WUHU216HW,2013-01-02 05:13:00,
2013-01-01 22:14:00,29.9,14.0,30.13,WNW,293,0.4,4.3,51,0.00,,,0.00,WUHU216HW,2013-01-02 05:14:00,
2013-01-01 22:15:00,29.9,14.0,30.13,WSW,248,0.7,4.3,51,0.00,,,0.00,WUHU216HW,2013-01-02 05:15:00,
2013-01-01 22:16:00,29.7,13.8,30.13,West,270,0.7,4.3,51,0.00,,,0.00,WUHU216HW,2013-01-02 05:16:00,
2013-01-01 22:17:00,29.7,13.8,30.13,WNW,293,0.4,4.3,51,0.00,,,0.00,WUHU216HW,2013-01-02 05:17:00,
2013-01-01 22:18:00,29.5,13.6,30.13,SW,225,1.1,4.3,51,0.00,,,0.00,WUHU216HW,2013-01-02 05:18:00,
2013-01-01 22:19:00,29.3,13.5,30.13,SW,225,0.7,4.3,51,0.00,,,0.00,WUHU216HW,2013-01-02 05:19:00,
2013-01-01 22:20:00,29.3,13.5,30.13,NW,315,0.2,4.3,51,0.00,,,0.00,WUHU216HW,2013-01-02 05:20:00,
2013-01-01 22:21:00,29.2,13.3,30.13,West,270,0.4,3.1,51,0.00,,,0.00,WUHU216HW,2013-01-02 05:21:00,
2013-01-01 22:22:00,29.2,13.3,30.13,WSW,248,1.1,1.1,51,0.00,,,0.00,WUHU216HW,2013-01-02 05:22:00,
2013-01-01 22:23:00,29.2,13.3,30.13,WSW,248,1.1,1.3,51,0.00,,,0.00,WUHU216HW,2013-01-02 05:23:00,
2013-01-01 22:24:00,29.2,13.3,30.13,West,270,1.1,1.3,51,0.00,,,0.00,WUHU216HW,2013-01-02 05:24:00,
2013-01-01 22:25:00,29.0,13.1,30.13,WSW,248,0.7,1.3,51,0.00,,,0.00,WUHU216HW,2013-01-02 05:25:00,
2013-01-01 22:26:00,29.0,13.1,30.13,WSW,248,1.1,1.3,51,0.00,,,0.00,WUHU216HW,2013-01-02 05:26:00,
2013-01-01 22:27:00,28.8,13.0,30.13,WSW,248,1.1,1.3,51,0.00,,,0.00,WUHU216HW,2013-01-02 05:27:00,
2013-01-01 22:28:00,28.8,13.0,30.13,SW,225,0.4,1.3,51,0.00,,,0.00,WUHU216HW,2013-01-02 05:28:00,
2013-01-01 22:29:00,28.8,13.0,30.13,WSW,248,0.7,1.3,51,0.00,,,0.00,WUHU216HW,2013-01-02 05:29:00,
2013-01-01 22:30:00,28.8,13.0,30.13,SW,225,0.4,1.3,51,0.00,,,0.00,WUHU216HW,2013-01-02 05:30:00,
2013-01-01 22:31:00,28.6,12.8,30.13,SW,225,0.7,1.3,51,0.00,,,0.00,WUHU216HW,2013-01-02 05:31:00,
2013-01-01 22:32:00,28.6,13.2,30.13,SW,225,0.9,1.3,52,0.00,,,0.00,WUHU216HW,2013-01-02 05:32:00,
2013-01-01 22:33:00,28.6,13.2,30.13,SW,225,0.9,1.1,52,0.00,,,0.00,WUHU216HW,2013-01-02 05:33:00,
2013-01-01 22:34:00,28.6,13.2,30.13,SW,225,1.1,1.1,52,0.00,,,0.00,WUHU216HW,2013-01-02 05:34:00,
2013-01-01 22:35:00,28.6,13.2,30.13,SW,225,1.3,1.3,52,0.00,,,0.00,WUHU216HW,2013-01-02 05:35:00,
2013-01-01 22:36:00,28.6,13.2,30.13,SSW,203,1.8,1.8,52,0.00,,,0.00,WUHU216HW,2013-01-02 05:36:00,
2013-01-01 22:37:00,28.6,13.2,30.13,WSW,248,1.1,1.8,52,0.00,,,0.00,WUHU216HW,2013-01-02 05:37:00,
2013-01-01 22:38:00,28.6,13.2,30.13,WSW,248,1.3,1.8,52,0.00,,,0.00,WUHU216HW,2013-01-02 05:38:00,
2013-01-01 22:39:00,28.6,13.2,30.13,WSW,248,1.3,1.8,52,0.00,,,0.00,WUHU216HW,2013-01-02 05:39:00,
2013-01-01 22:40:00,28.8,13.4,30.13,WSW,248,1.1,1.8,52,0.00,,,0.00,WUHU216HW,2013-01-02 05:40:00,
2013-01-01 22:41:00,28.8,13.4,30.13,SW,225,0.4,2.0,52,0.00,,,0.00,WUHU216HW,2013-01-02 05:41:00,
2013-01-01 22:42:00,28.8,13.4,30.13,SW,225,0.4,2.0,52,0.00,,,0.00,WUHU216HW,2013-01-02 05:42:00,
2013-01-01 22:43:00,28.8,13.4,30.13,SW,225,1.1,2.0,52,0.00,,,0.00,WUHU216HW,2013-01-02 05:43:00,
2013-01-01 22:44:00,28.8,13.4,30.13,SSW,203,1.3,2.0,52,0.00,,,0.00,WUHU216HW,2013-01-02 05:44:00,
2013-01-01 22:45:00,28.8,13.4,30.13,SW,225,1.1,2.0,52,0.00,,,0.00,WUHU216HW,2013-01-02 05:45:00,
2013-01-01 22:46:00,28.8,13.4,30.13,SW,225,1.1,2.0,52,0.00,,,0.00,WUHU216HW,2013-01-02 05:46:00,
2013-01-01 22:47:00,29.0,13.6,30.13,SW,225,1.1,2.0,52,0.00,,,0.00,WUHU216HW,2013-01-02 05:47:00,
2013-01-01 22:48:00,29.0,13.6,30.13,SW,225,1.1,2.0,52,0.00,,,0.00,WUHU216HW,2013-01-02 05:48:00,
2013-01-01 22:49:00,28.8,13.4,30.13,SW,225,1.1,2.0,52,0.00,,,0.00,WUHU216HW,2013-01-02 05:49:00,
2013-01-01 22:50:00,29.0,13.6,30.13,SW,225,1.1,2.0,52,0.00,,,0.00,WUHU216HW,2013-01-02 05:50:00,
2013-01-01 22:51:00,29.0,13.6,30.14,SW,225,1.3,1.8,52,0.00,,,0.00,WUHU216HW,2013-01-02 05:51:00,
2013-01-01 22:52:00,29.0,13.6,30.14,SW,225,0.7,1.8,52,0.00,,,0.00,WUHU216HW,2013-01-02 05:52:00,
2013-01-01 22:53:00,29.0,13.6,30.14,SW,225,0.7,1.8,52,0.00,,,0.00,WUHU216HW,2013-01-02 05:53:00,
2013-01-01 22:54:00,29.0,13.6,30.13,SW,225,0.4,1.8,52,0.00,,,0.00,WUHU216HW,2013-01-02 05:54:00,
2013-01-01 22:55:00,29.0,13.6,30.13,SW,225,1.1,1.8,52,0.00,,,0.00,WUHU216HW,2013-01-02 05:55:00,
2013-01-01 22:56:00,29.0,13.6,30.13,SW,225,0.7,1.8,52,0.00,,,0.00,WUHU216HW,2013-01-02 05:56:00,
2013-01-01 22:57:00,29.0,13.6,30.13,SW,225,0.7,1.8,52,0.00,,,0.00,WUHU216HW,2013-01-02 05:57:00,
2013-01-01 22:58:00,29.0,13.6,30.13,SW,225,0.7,1.8,52,0.00,,,0.00,WUHU216HW,2013-01-02 05:58:00,
2013-01-01 22:59:00,29.0,13.6,30.13,SW,225,0.4,1.8,52,0.00,,,0.00,WUHU216HW,2013-01-02 05:59:00,
2013-01-01 23:00:00,29.0,13.6,30.14,SW,225,0.4,1.8,52,0.00,,,0.00,WUHU216HW,2013-01-02 06:00:00,
2013-01-01 23:01:00,29.0,13.6,30.14,SW,225,0.4,1.6,52,0.00,,,0.00,WUHU216HW,2013-01-02 06:01:00,
2013-01-01 23:02:00,29.0,13.6,30.14,SW,225,0.4,1.1,52,0.00,,,0.00,WUHU216HW,2013-01-02 06:02:00,
2013-01-01 23:03:00,29.0,13.6,30.14,SW,225,0.4,1.1,52,0.00,,,0.00,WUHU216HW,2013-01-02 06:03:00,
2013-01-01 23:04:00,29.0,13.6,30.14,SW,225,0.4,1.1,52,0.00,,,0.00,WUHU216HW,2013-01-02 06:04:00,
2013-01-01 23:05:00,29.0,13.6,30.14,SW,225,1.1,1.1,52,0.00,,,0.00,WUHU216HW,2013-01-02 06:05:00,
2013-01-01 23:06:00,29.0,13.6,30.14,SW,225,0.4,1.1,52,0.00,,,0.00,WUHU216HW,2013-01-02 06:06:00,
2013-01-01 23:07:00,29.0,13.6,30.13,WSW,248,0.7,1.1,52,0.00,,,0.00,WUHU216HW,2013-01-02 06:07:00,
2013-01-01 23:08:00,29.0,13.6,30.14,SW,225,0.7,1.1,52,0.00,,,0.00,WUHU216HW,2013-01-02 06:08:00,
2013-01-01 23:09:00,29.0,13.6,30.14,WSW,248,0.4,1.1,52,0.00,,,0.00,WUHU216HW,2013-01-02 06:09:00,
2013-01-01 23:10:00,29.0,13.6,30.13,WSW,248,0.4,1.1,52,0.00,,,0.00,WUHU216HW,2013-01-02 06:10:00,
2013-01-01 23:11:00,29.0,13.6,30.14,WSW,248,1.1,1.1,52,0.00,,,0.00,WUHU216HW,2013-01-02 06:11:00,
2013-01-01 23:12:00,29.0,13.6,30.14,SW,225,1.1,1.1,52,0.00,,,0.00,WUHU216HW,2013-01-02 06:12:00,
2013-01-01 23:13:00,29.0,13.6,30.14,SW,225,1.1,1.1,52,0.00,,,0.00,WUHU216HW,2013-01-02 06:13:00,
2013-01-01 23:14:00,29.0,13.6,30.14,SW,225,1.1,1.1,52,0.00,,,0.00,WUHU216HW,2013-01-02 06:14:00,
2013-01-01 23:15:00,29.0,13.6,30.14,SW,225,0.7,1.1,52,0.00,,,0.00,WUHU216HW,2013-01-02 06:15:00,
2013-01-01 23:16:00,29.0,13.6,30.14,WSW,248,1.1,1.1,52,0.00,,,0.00,WUHU216HW,2013-01-02 06:16:00,
2013-01-01 23:17:00,29.0,13.6,30.13,SW,225,0.9,1.1,52,0.00,,,0.00,WUHU216HW,2013-01-02 06:17:00,
2013-01-01 23:18:00,29.2,13.7,30.14,WSW,248,0.9,1.1,52,0.00,,,0.00,WUHU216HW,2013-01-02 06:18:00,
2013-01-01 23:19:00,29.0,13.6,30.14,WSW,248,0.7,1.1,52,0.00,,,0.00,WUHU216HW,2013-01-02 06:19:00,
2013-01-01 23:20:00,29.0,13.6,30.14,WSW,248,0.9,1.1,52,0.00,,,0.00,WUHU216HW,2013-01-02 06:20:00,
2013-01-01 23:21:00,29.0,13.6,30.14,WSW,248,0.9,1.1,52,0.00,,,0.00,WUHU216HW,2013-01-02 06:21:00,
2013-01-01 23:22:00,29.2,13.7,30.14,WSW,248,1.1,1.3,52,0.00,,,0.00,WUHU216HW,2013-01-02 06:22:00,
2013-01-01 23:23:00,29.2,13.7,30.13,WSW,248,1.1,1.3,52,0.00,,,0.00,WUHU216HW,2013-01-02 06:23:00,
2013-01-01 23:24:00,29.2,13.7,30.14,WSW,248,1.1,1.3,52,0.00,,,0.00,WUHU216HW,2013-01-02 06:24:00,
2013-01-01 23:25:00,29.2,13.7,30.13,WSW,248,1.1,1.3,52,0.00,,,0.00,WUHU216HW,2013-01-02 06:25:00,
2013-01-01 23:26:00,29.2,13.7,30.13,WSW,248,0.9,1.3,52,0.00,,,0.00,WUHU216HW,2013-01-02 06:26:00,
2013-01-01 23:27:00,29.2,13.7,30.13,WSW,248,0.9,1.3,52,0.00,,,0.00,WUHU216HW,2013-01-02 06:27:00,
2013-01-01 23:28:00,29.2,13.7,30.13,WSW,248,0.9,1.3,52,0.00,,,0.00,WUHU216HW,2013-01-02 06:28:00,
2013-01-01 23:29:00,29.2,13.7,30.13,West,270,0.7,1.3,52,0.00,,,0.00,WUHU216HW,2013-01-02 06:29:00,
2013-01-01 23:30:00,29.3,13.9,30.13,West,270,0.9,1.3,52,0.00,,,0.00,WUHU216HW,2013-01-02 06:30:00,
2013-01-01 23:31:00,29.3,13.9,30.13,WSW,248,0.7,1.3,52,0.00,,,0.00,WUHU216HW,2013-01-02 06:31:00,
2013-01-01 23:32:00,29.3,13.9,30.13,WSW,248,0.4,1.3,52,0.00,,,0.00,WUHU216HW,2013-01-02 06:32:00,
2013-01-01 23:33:00,29.5,14.0,30.13,SW,225,1.1,1.1,52,0.00,,,0.00,WUHU216HW,2013-01-02 06:33:00,
2013-01-01 23:34:00,29.5,14.0,30.13,SW,225,1.1,1.1,52,0.00,,,0.00,WUHU216HW,2013-01-02 06:34:00,
2013-01-01 23:35:00,29.3,13.9,30.13,SW,225,1.3,1.3,52,0.00,,,0.00,WUHU216HW,2013-01-02 06:35:00,
2013-01-01 23:36:00,29.5,14.0,30.13,SW,225,1.1,1.6,52,0.00,,,0.00,WUHU216HW,2013-01-02 06:36:00,
2013-01-01 23:37:00,29.3,13.9,30.13,SW,225,1.6,1.8,52,0.00,,,0.00,WUHU216HW,2013-01-02 06:37:00,
2013-01-01 23:38:00,29.3,13.9,30.13,SW,225,1.1,1.8,52,0.00,,,0.00,WUHU216HW,2013-01-02 06:38:00,
2013-01-01 23:39:00,29.3,13.9,30.13,SW,225,0.4,1.8,52,0.00,,,0.00,WUHU216HW,2013-01-02 06:39:00,
2013-01-01 23:40:00,29.3,13.9,30.13,SW,225,0.4,1.8,52,0.00,,,0.00,WUHU216HW,2013-01-02 06:40:00,
2013-01-01 23:41:00,29.3,13.9,30.13,SW,225,0.0,1.8,52,0.00,,,0.00,WUHU216HW,2013-01-02 06:41:00,
2013-01-01 23:42:00,29.3,13.9,30.13,SW,225,0.2,1.8,52,0.00,,,0.00,WUHU216HW,2013-01-02 06:42:00,
2013-01-01 23:43:00,29.3,13.9,30.13,SW,225,0.0,1.8,52,0.00,,,0.00,WUHU216HW,2013-01-02 06:43:00,
2013-01-01 23:44:00,29.3,13.9,30.13,SW,225,0.0,1.8,52,0.00,,,0.00,WUHU216HW,2013-01-02 06:44:00,
2013-01-01 23:45:00,29.3,13.9,30.13,SW,225,0.0,1.8,52,0.00,,,0.00,WUHU216HW,2013-01-02 06:45:00,
2013-01-01 23:46:00,29.3,13.9,30.13,SW,225,0.0,1.8,52,0.00,,,0.00,WUHU216HW,2013-01-02 06:46:00,
2013-01-01 23:47:00,29.2,13.7,30.13,SW,225,0.0,1.8,52,0.00,,,0.00,WUHU216HW,2013-01-02 06:47:00,
2013-01-01 23:48:00,29.2,13.7,30.13,SW,225,0.0,1.1,52,0.00,,,0.00,WUHU216HW,2013-01-02 06:48:00,
2013-01-01 23:49:00,29.2,13.7,30.13,SW,225,0.0,0.9,52,0.00,,,0.00,WUHU216HW,2013-01-02 06:49:00,
2013-01-01 23:50:00,29.2,13.7,30.13,SW,225,0.0,0.4,52,0.00,,,0.00,WUHU216HW,2013-01-02 06:50:00,
2013-01-01 23:51:00,29.2,13.7,30.13,SW,225,0.0,0.4,52,0.00,,,0.00,WUHU216HW,2013-01-02 06:51:00,
2013-01-01 23:52:00,29.2,13.7,30.13,NW,315,0.0,0.2,52,0.00,,,0.00,WUHU216HW,2013-01-02 06:52:00,
2013-01-01 23:53:00,29.2,13.7,30.13,West,270,0.2,0.4,52,0.00,,,0.00,WUHU216HW,2013-01-02 06:53:00,
2013-01-01 23:54:00,29.2,13.7,30.13,West,270,0.0,0.4,52,0.00,,,0.00,WUHU216HW,2013-01-02 06:54:00,
2013-01-01 23:55:00,29.2,13.7,30.13,West,270,0.0,0.4,52,0.00,,,0.00,WUHU216HW,2013-01-02 06:55:00,
2013-01-01 23:56:00,29.2,13.7,30.13,West,270,0.0,0.4,52,0.00,,,0.00,WUHU216HW,2013-01-02 06:56:00,
2013-01-01 23:57:00,29.2,13.7,30.13,West,270,0.0,0.4,52,0.00,,,0.00,WUHU216HW,2013-01-02 06:57:00,
2013-01-01 23:58:00,29.2,13.7,30.13,West,270,0.0,0.4,52,0.00,,,0.00,WUHU216HW,2013-01-02 06:58:00,
2013-01-01 23:59:00,29.2,13.7,30.13,West,270,0.0,0.4,52,0.00,,,0.00,WUHU216HW,2013-01-02 06:59:00,